<?xml version="1.0" encoding="UTF-8" standalone="no" ?>
<gpx xmlns="http://www.topografix.com/GPX/1/1" xmlns:xsi="http://www.w3.org/2001/XMLSchema-instance" xsi:schemaLocation="http://www.topografix.com/GPX/1/1 http://www.topografix.com/GPX/1/1/gpx.xsd" version="1.1" creator="VisuGPX - https://www.visugpx.com">
  <metadata>
    <name>Oppidum de Bondelon à Fontaine de Vaucluse</name>
    <desc><![CDATA[Balade autour de Fontaine de Vaucluse en passant par l'oppidum de Bondelon.]]></desc>
  </metadata>
  <trk>
    <name><![CDATA[2018-03-12 15:07:09]]></name>
    <trkseg>
      <trkpt lat="43.91985" lon="5.127">
        <ele>85.69</ele>
        <time>2018-03-12T08:28:38Z</time>
      </trkpt>
      <trkpt lat="43.91985" lon="5.127">
        <ele>85.69</ele>
        <time>2018-03-12T08:28:39Z</time>
      </trkpt>
      <trkpt lat="43.91984" lon="5.12703">
        <ele>85.21</ele>
        <time>2018-03-12T08:29:10Z</time>
      </trkpt>
      <trkpt lat="43.91978" lon="5.12709">
        <ele>85.21</ele>
        <time>2018-03-12T08:29:48Z</time>
      </trkpt>
      <trkpt lat="43.91983" lon="5.12705">
        <ele>85.21</ele>
        <time>2018-03-12T08:30:04Z</time>
      </trkpt>
      <trkpt lat="43.91983" lon="5.12707">
        <ele>85.21</ele>
        <time>2018-03-12T08:30:36Z</time>
      </trkpt>
      <trkpt lat="43.91988" lon="5.12707">
        <ele>85.21</ele>
        <time>2018-03-12T08:31:09Z</time>
      </trkpt>
      <trkpt lat="43.91985" lon="5.12707">
        <ele>84.73</ele>
        <time>2018-03-12T08:31:36Z</time>
      </trkpt>
      <trkpt lat="43.9199" lon="5.12716">
        <ele>84.73</ele>
        <time>2018-03-12T08:32:03Z</time>
      </trkpt>
      <trkpt lat="43.91985" lon="5.12712">
        <ele>84.73</ele>
        <time>2018-03-12T08:32:24Z</time>
      </trkpt>
      <trkpt lat="43.91985" lon="5.12712">
        <ele>84.73</ele>
        <time>2018-03-12T08:32:56Z</time>
      </trkpt>
      <trkpt lat="43.91986" lon="5.12714">
        <ele>84.73</ele>
        <time>2018-03-12T08:33:25Z</time>
      </trkpt>
      <trkpt lat="43.91987" lon="5.12713">
        <ele>84.73</ele>
        <time>2018-03-12T08:33:42Z</time>
      </trkpt>
      <trkpt lat="43.91989" lon="5.12712">
        <ele>84.73</ele>
        <time>2018-03-12T08:34:12Z</time>
      </trkpt>
      <trkpt lat="43.91985" lon="5.12713">
        <ele>83.77</ele>
        <time>2018-03-12T08:34:39Z</time>
      </trkpt>
      <trkpt lat="43.91982" lon="5.12708">
        <ele>83.77</ele>
        <time>2018-03-12T08:35:06Z</time>
      </trkpt>
      <trkpt lat="43.91985" lon="5.12704">
        <ele>83.77</ele>
        <time>2018-03-12T08:35:54Z</time>
      </trkpt>
      <trkpt lat="43.91988" lon="5.1271">
        <ele>83.77</ele>
        <time>2018-03-12T08:36:34Z</time>
      </trkpt>
      <trkpt lat="43.91989" lon="5.12707">
        <ele>83.77</ele>
        <time>2018-03-12T08:37:21Z</time>
      </trkpt>
      <trkpt lat="43.91988" lon="5.12709">
        <ele>83.77</ele>
        <time>2018-03-12T08:38:00Z</time>
      </trkpt>
      <trkpt lat="43.91991" lon="5.12713">
        <ele>83.77</ele>
        <time>2018-03-12T08:38:31Z</time>
      </trkpt>
      <trkpt lat="43.91987" lon="5.12709">
        <ele>83.77</ele>
        <time>2018-03-12T08:39:02Z</time>
      </trkpt>
      <trkpt lat="43.91983" lon="5.1271">
        <ele>83.77</ele>
        <time>2018-03-12T08:39:31Z</time>
      </trkpt>
      <trkpt lat="43.91985" lon="5.12707">
        <ele>83.77</ele>
        <time>2018-03-12T08:39:56Z</time>
      </trkpt>
      <trkpt lat="43.91986" lon="5.12703">
        <ele>83.77</ele>
        <time>2018-03-12T08:40:27Z</time>
      </trkpt>
      <trkpt lat="43.91985" lon="5.12707">
        <ele>83.77</ele>
        <time>2018-03-12T08:40:50Z</time>
      </trkpt>
      <trkpt lat="43.91985" lon="5.12706">
        <ele>84.25</ele>
        <time>2018-03-12T08:41:25Z</time>
      </trkpt>
      <trkpt lat="43.91979" lon="5.12706">
        <ele>84.25</ele>
        <time>2018-03-12T08:41:51Z</time>
      </trkpt>
      <trkpt lat="43.91978" lon="5.12707">
        <ele>83.77</ele>
        <time>2018-03-12T08:42:12Z</time>
      </trkpt>
      <trkpt lat="43.9198" lon="5.1272">
        <ele>83.29</ele>
        <time>2018-03-12T08:42:25Z</time>
      </trkpt>
      <trkpt lat="43.91986" lon="5.12731">
        <ele>83.29</ele>
        <time>2018-03-12T08:42:47Z</time>
      </trkpt>
      <trkpt lat="43.91988" lon="5.12753">
        <ele>83.29</ele>
        <time>2018-03-12T08:43:02Z</time>
      </trkpt>
      <trkpt lat="43.91987" lon="5.12776">
        <ele>83.29</ele>
        <time>2018-03-12T08:43:20Z</time>
      </trkpt>
      <trkpt lat="43.91986" lon="5.12787">
        <ele>85.69</ele>
        <time>2018-03-12T08:43:34Z</time>
      </trkpt>
      <trkpt lat="43.91991" lon="5.12791">
        <ele>86.66</ele>
        <time>2018-03-12T08:43:49Z</time>
      </trkpt>
      <trkpt lat="43.9201" lon="5.12797">
        <ele>86.18</ele>
        <time>2018-03-12T08:44:09Z</time>
      </trkpt>
      <trkpt lat="43.92027" lon="5.128">
        <ele>86.66</ele>
        <time>2018-03-12T08:44:27Z</time>
      </trkpt>
      <trkpt lat="43.92039" lon="5.12803">
        <ele>86.18</ele>
        <time>2018-03-12T08:44:47Z</time>
      </trkpt>
      <trkpt lat="43.92058" lon="5.12808">
        <ele>86.18</ele>
        <time>2018-03-12T08:45:06Z</time>
      </trkpt>
      <trkpt lat="43.92074" lon="5.12815">
        <ele>86.18</ele>
        <time>2018-03-12T08:45:23Z</time>
      </trkpt>
      <trkpt lat="43.92088" lon="5.12819">
        <ele>86.18</ele>
        <time>2018-03-12T08:45:41Z</time>
      </trkpt>
      <trkpt lat="43.92105" lon="5.12826">
        <ele>85.69</ele>
        <time>2018-03-12T08:45:58Z</time>
      </trkpt>
      <trkpt lat="43.92108" lon="5.12827">
        <ele>85.69</ele>
        <time>2018-03-12T08:46:02Z</time>
      </trkpt>
      <trkpt lat="43.92112" lon="5.12828">
        <ele>85.69</ele>
        <time>2018-03-12T08:46:06Z</time>
      </trkpt>
      <trkpt lat="43.92124" lon="5.12837">
        <ele>85.69</ele>
        <time>2018-03-12T08:46:21Z</time>
      </trkpt>
      <trkpt lat="43.92136" lon="5.12836">
        <ele>85.21</ele>
        <time>2018-03-12T08:46:36Z</time>
      </trkpt>
      <trkpt lat="43.92144" lon="5.12842">
        <ele>85.21</ele>
        <time>2018-03-12T08:46:43Z</time>
      </trkpt>
      <trkpt lat="43.92166" lon="5.12851">
        <ele>85.21</ele>
        <time>2018-03-12T08:46:57Z</time>
      </trkpt>
      <trkpt lat="43.92182" lon="5.12844">
        <ele>84.73</ele>
        <time>2018-03-12T08:47:14Z</time>
      </trkpt>
      <trkpt lat="43.92189" lon="5.12831">
        <ele>84.73</ele>
        <time>2018-03-12T08:47:22Z</time>
      </trkpt>
      <trkpt lat="43.92198" lon="5.12817">
        <ele>84.73</ele>
        <time>2018-03-12T08:47:35Z</time>
      </trkpt>
      <trkpt lat="43.92203" lon="5.12797">
        <ele>84.73</ele>
        <time>2018-03-12T08:47:52Z</time>
      </trkpt>
      <trkpt lat="43.92205" lon="5.12776">
        <ele>84.25</ele>
        <time>2018-03-12T08:48:10Z</time>
      </trkpt>
      <trkpt lat="43.92216" lon="5.12771">
        <ele>83.29</ele>
        <time>2018-03-12T08:48:27Z</time>
      </trkpt>
      <trkpt lat="43.92227" lon="5.12779">
        <ele>82.81</ele>
        <time>2018-03-12T08:48:43Z</time>
      </trkpt>
      <trkpt lat="43.92242" lon="5.12791">
        <ele>82.81</ele>
        <time>2018-03-12T08:49:00Z</time>
      </trkpt>
      <trkpt lat="43.92248" lon="5.12798">
        <ele>82.33</ele>
        <time>2018-03-12T08:49:08Z</time>
      </trkpt>
      <trkpt lat="43.92259" lon="5.12815">
        <ele>83.77</ele>
        <time>2018-03-12T08:49:25Z</time>
      </trkpt>
      <trkpt lat="43.92267" lon="5.12831">
        <ele>84.73</ele>
        <time>2018-03-12T08:49:39Z</time>
      </trkpt>
      <trkpt lat="43.92272" lon="5.12854">
        <ele>86.18</ele>
        <time>2018-03-12T08:49:55Z</time>
      </trkpt>
      <trkpt lat="43.92273" lon="5.12859">
        <ele>86.18</ele>
        <time>2018-03-12T08:49:57Z</time>
      </trkpt>
      <trkpt lat="43.92278" lon="5.1288">
        <ele>87.62</ele>
        <time>2018-03-12T08:50:13Z</time>
      </trkpt>
      <trkpt lat="43.92278" lon="5.12896">
        <ele>87.62</ele>
        <time>2018-03-12T08:50:26Z</time>
      </trkpt>
      <trkpt lat="43.92278" lon="5.12899">
        <ele>88.1</ele>
        <time>2018-03-12T08:50:28Z</time>
      </trkpt>
      <trkpt lat="43.92274" lon="5.12925">
        <ele>88.58</ele>
        <time>2018-03-12T08:50:44Z</time>
      </trkpt>
      <trkpt lat="43.92265" lon="5.12956">
        <ele>89.06</ele>
        <time>2018-03-12T08:51:04Z</time>
      </trkpt>
      <trkpt lat="43.92255" lon="5.12979">
        <ele>88.58</ele>
        <time>2018-03-12T08:51:23Z</time>
      </trkpt>
      <trkpt lat="43.92247" lon="5.12987">
        <ele>88.58</ele>
        <time>2018-03-12T08:51:33Z</time>
      </trkpt>
      <trkpt lat="43.92231" lon="5.13">
        <ele>87.14</ele>
        <time>2018-03-12T08:51:50Z</time>
      </trkpt>
      <trkpt lat="43.9222" lon="5.13016">
        <ele>86.18</ele>
        <time>2018-03-12T08:52:08Z</time>
      </trkpt>
      <trkpt lat="43.92209" lon="5.13036">
        <ele>85.69</ele>
        <time>2018-03-12T08:52:27Z</time>
      </trkpt>
      <trkpt lat="43.92198" lon="5.13051">
        <ele>85.21</ele>
        <time>2018-03-12T08:52:46Z</time>
      </trkpt>
      <trkpt lat="43.92182" lon="5.1306">
        <ele>85.21</ele>
        <time>2018-03-12T08:53:01Z</time>
      </trkpt>
      <trkpt lat="43.92161" lon="5.13076">
        <ele>85.69</ele>
        <time>2018-03-12T08:53:19Z</time>
      </trkpt>
      <trkpt lat="43.92138" lon="5.13094">
        <ele>85.69</ele>
        <time>2018-03-12T08:53:37Z</time>
      </trkpt>
      <trkpt lat="43.92124" lon="5.13113">
        <ele>85.21</ele>
        <time>2018-03-12T08:53:55Z</time>
      </trkpt>
      <trkpt lat="43.9211" lon="5.13126">
        <ele>85.21</ele>
        <time>2018-03-12T08:54:11Z</time>
      </trkpt>
      <trkpt lat="43.92097" lon="5.13131">
        <ele>84.25</ele>
        <time>2018-03-12T08:54:25Z</time>
      </trkpt>
      <trkpt lat="43.9208" lon="5.13139">
        <ele>83.29</ele>
        <time>2018-03-12T08:54:39Z</time>
      </trkpt>
      <trkpt lat="43.92064" lon="5.13141">
        <ele>82.81</ele>
        <time>2018-03-12T08:54:53Z</time>
      </trkpt>
      <trkpt lat="43.9205" lon="5.13144">
        <ele>82.33</ele>
        <time>2018-03-12T08:55:07Z</time>
      </trkpt>
      <trkpt lat="43.92037" lon="5.13148">
        <ele>81.85</ele>
        <time>2018-03-12T08:55:21Z</time>
      </trkpt>
      <trkpt lat="43.92026" lon="5.13147">
        <ele>81.37</ele>
        <time>2018-03-12T08:55:37Z</time>
      </trkpt>
      <trkpt lat="43.92016" lon="5.13153">
        <ele>80.89</ele>
        <time>2018-03-12T08:55:51Z</time>
      </trkpt>
      <trkpt lat="43.92001" lon="5.13163">
        <ele>81.85</ele>
        <time>2018-03-12T08:56:10Z</time>
      </trkpt>
      <trkpt lat="43.91989" lon="5.13174">
        <ele>81.37</ele>
        <time>2018-03-12T08:56:41Z</time>
      </trkpt>
      <trkpt lat="43.91989" lon="5.13173">
        <ele>80.89</ele>
        <time>2018-03-12T08:57:01Z</time>
      </trkpt>
      <trkpt lat="43.91998" lon="5.13167">
        <ele>80.89</ele>
        <time>2018-03-12T08:57:16Z</time>
      </trkpt>
      <trkpt lat="43.9201" lon="5.13166">
        <ele>79.45</ele>
        <time>2018-03-12T08:57:33Z</time>
      </trkpt>
      <trkpt lat="43.9202" lon="5.13159">
        <ele>78.48</ele>
        <time>2018-03-12T08:57:48Z</time>
      </trkpt>
      <trkpt lat="43.9203" lon="5.13153">
        <ele>78.48</ele>
        <time>2018-03-12T08:58:02Z</time>
      </trkpt>
      <trkpt lat="43.92038" lon="5.13147">
        <ele>78.48</ele>
        <time>2018-03-12T08:58:17Z</time>
      </trkpt>
      <trkpt lat="43.92038" lon="5.13146">
        <ele>78.48</ele>
        <time>2018-03-12T08:58:18Z</time>
      </trkpt>
      <trkpt lat="43.9205" lon="5.13141">
        <ele>78</ele>
        <time>2018-03-12T08:58:34Z</time>
      </trkpt>
      <trkpt lat="43.92062" lon="5.13137">
        <ele>78</ele>
        <time>2018-03-12T08:58:48Z</time>
      </trkpt>
      <trkpt lat="43.92083" lon="5.13127">
        <ele>78.97</ele>
        <time>2018-03-12T08:59:04Z</time>
      </trkpt>
      <trkpt lat="43.92095" lon="5.1312">
        <ele>79.45</ele>
        <time>2018-03-12T08:59:13Z</time>
      </trkpt>
      <trkpt lat="43.92124" lon="5.13098">
        <ele>79.93</ele>
        <time>2018-03-12T08:59:29Z</time>
      </trkpt>
      <trkpt lat="43.92139" lon="5.13081">
        <ele>79.93</ele>
        <time>2018-03-12T08:59:47Z</time>
      </trkpt>
      <trkpt lat="43.92156" lon="5.13064">
        <ele>80.41</ele>
        <time>2018-03-12T09:00:07Z</time>
      </trkpt>
      <trkpt lat="43.92172" lon="5.1305">
        <ele>80.41</ele>
        <time>2018-03-12T09:00:27Z</time>
      </trkpt>
      <trkpt lat="43.92182" lon="5.13042">
        <ele>78.97</ele>
        <time>2018-03-12T09:00:42Z</time>
      </trkpt>
      <trkpt lat="43.92199" lon="5.13026">
        <ele>78.48</ele>
        <time>2018-03-12T09:01:00Z</time>
      </trkpt>
      <trkpt lat="43.92217" lon="5.13012">
        <ele>78.97</ele>
        <time>2018-03-12T09:01:16Z</time>
      </trkpt>
      <trkpt lat="43.92234" lon="5.12993">
        <ele>79.93</ele>
        <time>2018-03-12T09:01:36Z</time>
      </trkpt>
      <trkpt lat="43.9225" lon="5.12976">
        <ele>80.89</ele>
        <time>2018-03-12T09:01:54Z</time>
      </trkpt>
      <trkpt lat="43.92263" lon="5.12958">
        <ele>81.37</ele>
        <time>2018-03-12T09:02:12Z</time>
      </trkpt>
      <trkpt lat="43.92271" lon="5.12936">
        <ele>81.85</ele>
        <time>2018-03-12T09:02:30Z</time>
      </trkpt>
      <trkpt lat="43.92275" lon="5.1291">
        <ele>81.85</ele>
        <time>2018-03-12T09:02:48Z</time>
      </trkpt>
      <trkpt lat="43.92277" lon="5.12886">
        <ele>80.41</ele>
        <time>2018-03-12T09:03:07Z</time>
      </trkpt>
      <trkpt lat="43.92276" lon="5.12871">
        <ele>79.45</ele>
        <time>2018-03-12T09:03:18Z</time>
      </trkpt>
      <trkpt lat="43.92268" lon="5.12841">
        <ele>77.52</ele>
        <time>2018-03-12T09:03:39Z</time>
      </trkpt>
      <trkpt lat="43.92257" lon="5.12814">
        <ele>75.6</ele>
        <time>2018-03-12T09:04:00Z</time>
      </trkpt>
      <trkpt lat="43.92243" lon="5.12794">
        <ele>75.12</ele>
        <time>2018-03-12T09:04:19Z</time>
      </trkpt>
      <trkpt lat="43.92234" lon="5.12784">
        <ele>74.64</ele>
        <time>2018-03-12T09:04:28Z</time>
      </trkpt>
      <trkpt lat="43.92227" lon="5.12773">
        <ele>74.16</ele>
        <time>2018-03-12T09:04:39Z</time>
      </trkpt>
      <trkpt lat="43.92217" lon="5.12763">
        <ele>74.16</ele>
        <time>2018-03-12T09:04:54Z</time>
      </trkpt>
      <trkpt lat="43.92208" lon="5.12748">
        <ele>74.16</ele>
        <time>2018-03-12T09:05:11Z</time>
      </trkpt>
      <trkpt lat="43.92196" lon="5.12733">
        <ele>73.68</ele>
        <time>2018-03-12T09:05:25Z</time>
      </trkpt>
      <trkpt lat="43.92189" lon="5.12709">
        <ele>74.16</ele>
        <time>2018-03-12T09:05:43Z</time>
      </trkpt>
      <trkpt lat="43.92181" lon="5.12688">
        <ele>75.6</ele>
        <time>2018-03-12T09:05:59Z</time>
      </trkpt>
      <trkpt lat="43.92175" lon="5.12661">
        <ele>77.04</ele>
        <time>2018-03-12T09:06:14Z</time>
      </trkpt>
      <trkpt lat="43.92176" lon="5.12638">
        <ele>78</ele>
        <time>2018-03-12T09:06:30Z</time>
      </trkpt>
      <trkpt lat="43.92176" lon="5.12615">
        <ele>78.48</ele>
        <time>2018-03-12T09:06:46Z</time>
      </trkpt>
      <trkpt lat="43.92182" lon="5.12589">
        <ele>79.45</ele>
        <time>2018-03-12T09:07:06Z</time>
      </trkpt>
      <trkpt lat="43.92184" lon="5.12571">
        <ele>80.89</ele>
        <time>2018-03-12T09:07:21Z</time>
      </trkpt>
      <trkpt lat="43.9219" lon="5.12552">
        <ele>83.77</ele>
        <time>2018-03-12T09:07:41Z</time>
      </trkpt>
      <trkpt lat="43.92194" lon="5.12529">
        <ele>84.73</ele>
        <time>2018-03-12T09:07:56Z</time>
      </trkpt>
      <trkpt lat="43.922" lon="5.12505">
        <ele>86.18</ele>
        <time>2018-03-12T09:08:12Z</time>
      </trkpt>
      <trkpt lat="43.92204" lon="5.12489">
        <ele>88.58</ele>
        <time>2018-03-12T09:08:27Z</time>
      </trkpt>
      <trkpt lat="43.92206" lon="5.12471">
        <ele>90.98</ele>
        <time>2018-03-12T09:08:44Z</time>
      </trkpt>
      <trkpt lat="43.92207" lon="5.12448">
        <ele>92.42</ele>
        <time>2018-03-12T09:09:02Z</time>
      </trkpt>
      <trkpt lat="43.92208" lon="5.12434">
        <ele>92.9</ele>
        <time>2018-03-12T09:09:18Z</time>
      </trkpt>
      <trkpt lat="43.9221" lon="5.12434">
        <ele>92.9</ele>
        <time>2018-03-12T09:09:48Z</time>
      </trkpt>
      <trkpt lat="43.92209" lon="5.12433">
        <ele>93.39</ele>
        <time>2018-03-12T09:10:23Z</time>
      </trkpt>
      <trkpt lat="43.92209" lon="5.12433">
        <ele>93.39</ele>
        <time>2018-03-12T09:10:48Z</time>
      </trkpt>
      <trkpt lat="43.92208" lon="5.12432">
        <ele>93.39</ele>
        <time>2018-03-12T09:11:19Z</time>
      </trkpt>
      <trkpt lat="43.92209" lon="5.12432">
        <ele>92.9</ele>
        <time>2018-03-12T09:11:38Z</time>
      </trkpt>
      <trkpt lat="43.92209" lon="5.12429">
        <ele>94.35</ele>
        <time>2018-03-12T09:11:40Z</time>
      </trkpt>
      <trkpt lat="43.92209" lon="5.1243">
        <ele>94.35</ele>
        <time>2018-03-12T09:11:41Z</time>
      </trkpt>
      <trkpt lat="43.92205" lon="5.12424">
        <ele>94.35</ele>
        <time>2018-03-12T09:11:51Z</time>
      </trkpt>
      <trkpt lat="43.92205" lon="5.12408">
        <ele>94.83</ele>
        <time>2018-03-12T09:12:06Z</time>
      </trkpt>
      <trkpt lat="43.92204" lon="5.12383">
        <ele>97.23</ele>
        <time>2018-03-12T09:12:24Z</time>
      </trkpt>
      <trkpt lat="43.92205" lon="5.12355">
        <ele>99.63</ele>
        <time>2018-03-12T09:12:44Z</time>
      </trkpt>
      <trkpt lat="43.92208" lon="5.12338">
        <ele>101.56</ele>
        <time>2018-03-12T09:13:03Z</time>
      </trkpt>
      <trkpt lat="43.92209" lon="5.12326">
        <ele>103.48</ele>
        <time>2018-03-12T09:13:20Z</time>
      </trkpt>
      <trkpt lat="43.92211" lon="5.12311">
        <ele>105.4</ele>
        <time>2018-03-12T09:13:36Z</time>
      </trkpt>
      <trkpt lat="43.9221" lon="5.12299">
        <ele>107.81</ele>
        <time>2018-03-12T09:13:49Z</time>
      </trkpt>
      <trkpt lat="43.92215" lon="5.12284">
        <ele>108.77</ele>
        <time>2018-03-12T09:14:03Z</time>
      </trkpt>
      <trkpt lat="43.92217" lon="5.12262">
        <ele>111.17</ele>
        <time>2018-03-12T09:14:22Z</time>
      </trkpt>
      <trkpt lat="43.9222" lon="5.12241">
        <ele>112.61</ele>
        <time>2018-03-12T09:14:38Z</time>
      </trkpt>
      <trkpt lat="43.92227" lon="5.12227">
        <ele>113.57</ele>
        <time>2018-03-12T09:14:52Z</time>
      </trkpt>
      <trkpt lat="43.9223" lon="5.12213">
        <ele>114.53</ele>
        <time>2018-03-12T09:15:06Z</time>
      </trkpt>
      <trkpt lat="43.9223" lon="5.12199">
        <ele>115.98</ele>
        <time>2018-03-12T09:15:20Z</time>
      </trkpt>
      <trkpt lat="43.92225" lon="5.12181">
        <ele>116.46</ele>
        <time>2018-03-12T09:15:35Z</time>
      </trkpt>
      <trkpt lat="43.9222" lon="5.12168">
        <ele>117.42</ele>
        <time>2018-03-12T09:15:47Z</time>
      </trkpt>
      <trkpt lat="43.92213" lon="5.12155">
        <ele>118.86</ele>
        <time>2018-03-12T09:16:00Z</time>
      </trkpt>
      <trkpt lat="43.92203" lon="5.12143">
        <ele>119.82</ele>
        <time>2018-03-12T09:16:15Z</time>
      </trkpt>
      <trkpt lat="43.92195" lon="5.1214">
        <ele>121.26</ele>
        <time>2018-03-12T09:16:29Z</time>
      </trkpt>
      <trkpt lat="43.92189" lon="5.12127">
        <ele>122.22</ele>
        <time>2018-03-12T09:16:44Z</time>
      </trkpt>
      <trkpt lat="43.92179" lon="5.12113">
        <ele>123.67</ele>
        <time>2018-03-12T09:16:59Z</time>
      </trkpt>
      <trkpt lat="43.92172" lon="5.121">
        <ele>125.11</ele>
        <time>2018-03-12T09:17:15Z</time>
      </trkpt>
      <trkpt lat="43.92167" lon="5.12086">
        <ele>126.07</ele>
        <time>2018-03-12T09:17:30Z</time>
      </trkpt>
      <trkpt lat="43.92163" lon="5.12073">
        <ele>127.03</ele>
        <time>2018-03-12T09:17:43Z</time>
      </trkpt>
      <trkpt lat="43.92156" lon="5.12047">
        <ele>127.03</ele>
        <time>2018-03-12T09:18:01Z</time>
      </trkpt>
      <trkpt lat="43.92156" lon="5.12025">
        <ele>127.03</ele>
        <time>2018-03-12T09:18:16Z</time>
      </trkpt>
      <trkpt lat="43.92159" lon="5.12013">
        <ele>127.99</ele>
        <time>2018-03-12T09:18:25Z</time>
      </trkpt>
      <trkpt lat="43.92168" lon="5.11995">
        <ele>129.92</ele>
        <time>2018-03-12T09:18:42Z</time>
      </trkpt>
      <trkpt lat="43.92174" lon="5.11982">
        <ele>131.84</ele>
        <time>2018-03-12T09:18:55Z</time>
      </trkpt>
      <trkpt lat="43.92181" lon="5.11966">
        <ele>133.76</ele>
        <time>2018-03-12T09:19:11Z</time>
      </trkpt>
      <trkpt lat="43.92187" lon="5.11954">
        <ele>134.72</ele>
        <time>2018-03-12T09:19:25Z</time>
      </trkpt>
      <trkpt lat="43.92197" lon="5.1194">
        <ele>136.16</ele>
        <time>2018-03-12T09:19:40Z</time>
      </trkpt>
      <trkpt lat="43.92204" lon="5.1193">
        <ele>137.61</ele>
        <time>2018-03-12T09:19:55Z</time>
      </trkpt>
      <trkpt lat="43.92204" lon="5.11912">
        <ele>139.53</ele>
        <time>2018-03-12T09:20:12Z</time>
      </trkpt>
      <trkpt lat="43.92202" lon="5.11896">
        <ele>141.45</ele>
        <time>2018-03-12T09:20:27Z</time>
      </trkpt>
      <trkpt lat="43.92201" lon="5.11879">
        <ele>142.89</ele>
        <time>2018-03-12T09:20:42Z</time>
      </trkpt>
      <trkpt lat="43.92197" lon="5.11862">
        <ele>144.34</ele>
        <time>2018-03-12T09:20:57Z</time>
      </trkpt>
      <trkpt lat="43.92193" lon="5.11843">
        <ele>145.78</ele>
        <time>2018-03-12T09:21:13Z</time>
      </trkpt>
      <trkpt lat="43.92191" lon="5.11832">
        <ele>147.22</ele>
        <time>2018-03-12T09:21:25Z</time>
      </trkpt>
      <trkpt lat="43.92188" lon="5.11821">
        <ele>149.14</ele>
        <time>2018-03-12T09:21:39Z</time>
      </trkpt>
      <trkpt lat="43.92182" lon="5.1181">
        <ele>150.58</ele>
        <time>2018-03-12T09:21:55Z</time>
      </trkpt>
      <trkpt lat="43.92178" lon="5.11802">
        <ele>152.99</ele>
        <time>2018-03-12T09:22:09Z</time>
      </trkpt>
      <trkpt lat="43.92171" lon="5.11798">
        <ele>154.43</ele>
        <time>2018-03-12T09:22:20Z</time>
      </trkpt>
      <trkpt lat="43.92164" lon="5.1179">
        <ele>155.87</ele>
        <time>2018-03-12T09:22:36Z</time>
      </trkpt>
      <trkpt lat="43.92157" lon="5.11778">
        <ele>157.31</ele>
        <time>2018-03-12T09:22:50Z</time>
      </trkpt>
      <trkpt lat="43.92154" lon="5.11762">
        <ele>159.24</ele>
        <time>2018-03-12T09:23:05Z</time>
      </trkpt>
      <trkpt lat="43.9215" lon="5.11746">
        <ele>159.72</ele>
        <time>2018-03-12T09:23:21Z</time>
      </trkpt>
      <trkpt lat="43.92148" lon="5.1174">
        <ele>160.68</ele>
        <time>2018-03-12T09:23:38Z</time>
      </trkpt>
      <trkpt lat="43.92149" lon="5.11742">
        <ele>161.64</ele>
        <time>2018-03-12T09:23:50Z</time>
      </trkpt>
      <trkpt lat="43.92148" lon="5.11742">
        <ele>161.64</ele>
        <time>2018-03-12T09:23:51Z</time>
      </trkpt>
      <trkpt lat="43.92148" lon="5.11742">
        <ele>160.2</ele>
        <time>2018-03-12T09:23:53Z</time>
      </trkpt>
      <trkpt lat="43.9215" lon="5.11743">
        <ele>160.68</ele>
        <time>2018-03-12T09:24:07Z</time>
      </trkpt>
      <trkpt lat="43.9215" lon="5.11744">
        <ele>160.68</ele>
        <time>2018-03-12T09:24:20Z</time>
      </trkpt>
      <trkpt lat="43.92149" lon="5.11743">
        <ele>160.2</ele>
        <time>2018-03-12T09:24:33Z</time>
      </trkpt>
      <trkpt lat="43.92152" lon="5.11746">
        <ele>160.2</ele>
        <time>2018-03-12T09:24:56Z</time>
      </trkpt>
      <trkpt lat="43.92152" lon="5.11745">
        <ele>160.2</ele>
        <time>2018-03-12T09:25:25Z</time>
      </trkpt>
      <trkpt lat="43.92149" lon="5.11743">
        <ele>160.68</ele>
        <time>2018-03-12T09:25:56Z</time>
      </trkpt>
      <trkpt lat="43.92152" lon="5.11743">
        <ele>160.68</ele>
        <time>2018-03-12T09:26:32Z</time>
      </trkpt>
      <trkpt lat="43.92154" lon="5.11743">
        <ele>160.68</ele>
        <time>2018-03-12T09:27:03Z</time>
      </trkpt>
      <trkpt lat="43.92149" lon="5.11744">
        <ele>161.16</ele>
        <time>2018-03-12T09:27:39Z</time>
      </trkpt>
      <trkpt lat="43.92148" lon="5.11737">
        <ele>161.16</ele>
        <time>2018-03-12T09:28:13Z</time>
      </trkpt>
      <trkpt lat="43.92149" lon="5.1174">
        <ele>161.16</ele>
        <time>2018-03-12T09:28:38Z</time>
      </trkpt>
      <trkpt lat="43.92154" lon="5.11743">
        <ele>160.68</ele>
        <time>2018-03-12T09:29:17Z</time>
      </trkpt>
      <trkpt lat="43.92149" lon="5.11744">
        <ele>161.16</ele>
        <time>2018-03-12T09:29:51Z</time>
      </trkpt>
      <trkpt lat="43.9215" lon="5.11745">
        <ele>161.16</ele>
        <time>2018-03-12T09:30:37Z</time>
      </trkpt>
      <trkpt lat="43.92149" lon="5.11743">
        <ele>161.16</ele>
        <time>2018-03-12T09:31:17Z</time>
      </trkpt>
      <trkpt lat="43.92149" lon="5.1174">
        <ele>161.64</ele>
        <time>2018-03-12T09:31:57Z</time>
      </trkpt>
      <trkpt lat="43.9215" lon="5.11744">
        <ele>161.16</ele>
        <time>2018-03-12T09:32:40Z</time>
      </trkpt>
      <trkpt lat="43.9215" lon="5.11744">
        <ele>161.64</ele>
        <time>2018-03-12T09:33:09Z</time>
      </trkpt>
      <trkpt lat="43.92149" lon="5.11743">
        <ele>161.64</ele>
        <time>2018-03-12T09:33:47Z</time>
      </trkpt>
      <trkpt lat="43.92148" lon="5.11745">
        <ele>162.12</ele>
        <time>2018-03-12T09:34:24Z</time>
      </trkpt>
      <trkpt lat="43.92149" lon="5.11743">
        <ele>162.12</ele>
        <time>2018-03-12T09:34:57Z</time>
      </trkpt>
      <trkpt lat="43.92146" lon="5.11746">
        <ele>162.12</ele>
        <time>2018-03-12T09:35:26Z</time>
      </trkpt>
      <trkpt lat="43.92146" lon="5.11747">
        <ele>162.12</ele>
        <time>2018-03-12T09:35:53Z</time>
      </trkpt>
      <trkpt lat="43.9215" lon="5.11742">
        <ele>163.56</ele>
        <time>2018-03-12T09:36:07Z</time>
      </trkpt>
      <trkpt lat="43.92148" lon="5.11743">
        <ele>165.48</ele>
        <time>2018-03-12T09:36:22Z</time>
      </trkpt>
      <trkpt lat="43.92149" lon="5.11743">
        <ele>164.04</ele>
        <time>2018-03-12T09:36:36Z</time>
      </trkpt>
      <trkpt lat="43.92149" lon="5.11743">
        <ele>159.24</ele>
        <time>2018-03-12T09:36:41Z</time>
      </trkpt>
      <trkpt lat="43.92148" lon="5.11744">
        <ele>166.45</ele>
        <time>2018-03-12T09:36:42Z</time>
      </trkpt>
      <trkpt lat="43.92147" lon="5.11743">
        <ele>164.04</ele>
        <time>2018-03-12T09:36:45Z</time>
      </trkpt>
      <trkpt lat="43.92147" lon="5.11743">
        <ele>164.04</ele>
        <time>2018-03-12T09:37:03Z</time>
      </trkpt>
      <trkpt lat="43.92144" lon="5.11743">
        <ele>164.04</ele>
        <time>2018-03-12T09:37:25Z</time>
      </trkpt>
      <trkpt lat="43.92142" lon="5.1174">
        <ele>164.04</ele>
        <time>2018-03-12T09:37:49Z</time>
      </trkpt>
      <trkpt lat="43.92141" lon="5.1174">
        <ele>164.04</ele>
        <time>2018-03-12T09:38:18Z</time>
      </trkpt>
      <trkpt lat="43.92141" lon="5.11739">
        <ele>164.04</ele>
        <time>2018-03-12T09:38:39Z</time>
      </trkpt>
      <trkpt lat="43.92137" lon="5.11738">
        <ele>164.04</ele>
        <time>2018-03-12T09:39:06Z</time>
      </trkpt>
      <trkpt lat="43.92137" lon="5.11739">
        <ele>164.04</ele>
        <time>2018-03-12T09:39:32Z</time>
      </trkpt>
      <trkpt lat="43.9214" lon="5.11734">
        <ele>164.04</ele>
        <time>2018-03-12T09:39:51Z</time>
      </trkpt>
      <trkpt lat="43.92148" lon="5.11723">
        <ele>165</ele>
        <time>2018-03-12T09:40:08Z</time>
      </trkpt>
      <trkpt lat="43.92151" lon="5.11721">
        <ele>165.48</ele>
        <time>2018-03-12T09:40:11Z</time>
      </trkpt>
      <trkpt lat="43.92162" lon="5.1172">
        <ele>166.45</ele>
        <time>2018-03-12T09:40:26Z</time>
      </trkpt>
      <trkpt lat="43.92169" lon="5.1172">
        <ele>166.93</ele>
        <time>2018-03-12T09:40:40Z</time>
      </trkpt>
      <trkpt lat="43.92176" lon="5.11722">
        <ele>167.89</ele>
        <time>2018-03-12T09:40:55Z</time>
      </trkpt>
      <trkpt lat="43.92189" lon="5.11724">
        <ele>168.85</ele>
        <time>2018-03-12T09:41:11Z</time>
      </trkpt>
      <trkpt lat="43.92205" lon="5.11726">
        <ele>169.81</ele>
        <time>2018-03-12T09:41:30Z</time>
      </trkpt>
      <trkpt lat="43.92223" lon="5.11735">
        <ele>171.25</ele>
        <time>2018-03-12T09:41:48Z</time>
      </trkpt>
      <trkpt lat="43.92236" lon="5.11744">
        <ele>172.69</ele>
        <time>2018-03-12T09:42:03Z</time>
      </trkpt>
      <trkpt lat="43.92248" lon="5.1175">
        <ele>174.14</ele>
        <time>2018-03-12T09:42:17Z</time>
      </trkpt>
      <trkpt lat="43.92254" lon="5.11754">
        <ele>175.1</ele>
        <time>2018-03-12T09:42:33Z</time>
      </trkpt>
      <trkpt lat="43.9226" lon="5.11762">
        <ele>176.54</ele>
        <time>2018-03-12T09:42:45Z</time>
      </trkpt>
      <trkpt lat="43.92272" lon="5.11776">
        <ele>177.98</ele>
        <time>2018-03-12T09:43:01Z</time>
      </trkpt>
      <trkpt lat="43.92281" lon="5.11779">
        <ele>179.9</ele>
        <time>2018-03-12T09:43:16Z</time>
      </trkpt>
      <trkpt lat="43.92296" lon="5.11782">
        <ele>180.87</ele>
        <time>2018-03-12T09:43:32Z</time>
      </trkpt>
      <trkpt lat="43.92309" lon="5.11786">
        <ele>182.31</ele>
        <time>2018-03-12T09:43:48Z</time>
      </trkpt>
      <trkpt lat="43.92322" lon="5.11793">
        <ele>184.23</ele>
        <time>2018-03-12T09:44:06Z</time>
      </trkpt>
      <trkpt lat="43.92338" lon="5.118">
        <ele>185.19</ele>
        <time>2018-03-12T09:44:25Z</time>
      </trkpt>
      <trkpt lat="43.92355" lon="5.11808">
        <ele>186.63</ele>
        <time>2018-03-12T09:44:42Z</time>
      </trkpt>
      <trkpt lat="43.92368" lon="5.11812">
        <ele>188.08</ele>
        <time>2018-03-12T09:44:59Z</time>
      </trkpt>
      <trkpt lat="43.92383" lon="5.11815">
        <ele>188.56</ele>
        <time>2018-03-12T09:45:15Z</time>
      </trkpt>
      <trkpt lat="43.92397" lon="5.11818">
        <ele>189.52</ele>
        <time>2018-03-12T09:45:32Z</time>
      </trkpt>
      <trkpt lat="43.92414" lon="5.11823">
        <ele>190.48</ele>
        <time>2018-03-12T09:45:49Z</time>
      </trkpt>
      <trkpt lat="43.92428" lon="5.11823">
        <ele>191.92</ele>
        <time>2018-03-12T09:46:05Z</time>
      </trkpt>
      <trkpt lat="43.92444" lon="5.1182">
        <ele>192.88</ele>
        <time>2018-03-12T09:46:21Z</time>
      </trkpt>
      <trkpt lat="43.92458" lon="5.11826">
        <ele>194.32</ele>
        <time>2018-03-12T09:46:40Z</time>
      </trkpt>
      <trkpt lat="43.92468" lon="5.11833">
        <ele>194.8</ele>
        <time>2018-03-12T09:46:52Z</time>
      </trkpt>
      <trkpt lat="43.92483" lon="5.1184">
        <ele>195.77</ele>
        <time>2018-03-12T09:47:07Z</time>
      </trkpt>
      <trkpt lat="43.92498" lon="5.11838">
        <ele>195.77</ele>
        <time>2018-03-12T09:47:24Z</time>
      </trkpt>
      <trkpt lat="43.92513" lon="5.11837">
        <ele>195.77</ele>
        <time>2018-03-12T09:47:38Z</time>
      </trkpt>
      <trkpt lat="43.92531" lon="5.11841">
        <ele>196.73</ele>
        <time>2018-03-12T09:47:54Z</time>
      </trkpt>
      <trkpt lat="43.92537" lon="5.11855">
        <ele>198.65</ele>
        <time>2018-03-12T09:48:10Z</time>
      </trkpt>
      <trkpt lat="43.9254" lon="5.11872">
        <ele>201.05</ele>
        <time>2018-03-12T09:48:28Z</time>
      </trkpt>
      <trkpt lat="43.92546" lon="5.11886">
        <ele>202.49</ele>
        <time>2018-03-12T09:48:46Z</time>
      </trkpt>
      <trkpt lat="43.92553" lon="5.11899">
        <ele>203.94</ele>
        <time>2018-03-12T09:49:01Z</time>
      </trkpt>
      <trkpt lat="43.92563" lon="5.1191">
        <ele>205.38</ele>
        <time>2018-03-12T09:49:16Z</time>
      </trkpt>
      <trkpt lat="43.92574" lon="5.1192">
        <ele>206.82</ele>
        <time>2018-03-12T09:49:31Z</time>
      </trkpt>
      <trkpt lat="43.92578" lon="5.11934">
        <ele>208.74</ele>
        <time>2018-03-12T09:49:46Z</time>
      </trkpt>
      <trkpt lat="43.92583" lon="5.11942">
        <ele>209.7</ele>
        <time>2018-03-12T09:49:58Z</time>
      </trkpt>
      <trkpt lat="43.92582" lon="5.11942">
        <ele>210.67</ele>
        <time>2018-03-12T09:50:25Z</time>
      </trkpt>
      <trkpt lat="43.92581" lon="5.11945">
        <ele>210.19</ele>
        <time>2018-03-12T09:50:41Z</time>
      </trkpt>
      <trkpt lat="43.92582" lon="5.11945">
        <ele>210.19</ele>
        <time>2018-03-12T09:51:02Z</time>
      </trkpt>
      <trkpt lat="43.9259" lon="5.11957">
        <ele>212.11</ele>
        <time>2018-03-12T09:51:18Z</time>
      </trkpt>
      <trkpt lat="43.92596" lon="5.11968">
        <ele>213.55</ele>
        <time>2018-03-12T09:51:33Z</time>
      </trkpt>
      <trkpt lat="43.92604" lon="5.11984">
        <ele>214.99</ele>
        <time>2018-03-12T09:51:50Z</time>
      </trkpt>
      <trkpt lat="43.92611" lon="5.11997">
        <ele>216.91</ele>
        <time>2018-03-12T09:52:04Z</time>
      </trkpt>
      <trkpt lat="43.92623" lon="5.12011">
        <ele>218.84</ele>
        <time>2018-03-12T09:52:21Z</time>
      </trkpt>
      <trkpt lat="43.92633" lon="5.12024">
        <ele>219.8</ele>
        <time>2018-03-12T09:52:37Z</time>
      </trkpt>
      <trkpt lat="43.92643" lon="5.12036">
        <ele>221.24</ele>
        <time>2018-03-12T09:52:52Z</time>
      </trkpt>
      <trkpt lat="43.92654" lon="5.12046">
        <ele>223.16</ele>
        <time>2018-03-12T09:53:05Z</time>
      </trkpt>
      <trkpt lat="43.92665" lon="5.12058">
        <ele>224.12</ele>
        <time>2018-03-12T09:53:21Z</time>
      </trkpt>
      <trkpt lat="43.92676" lon="5.1207">
        <ele>225.09</ele>
        <time>2018-03-12T09:53:37Z</time>
      </trkpt>
      <trkpt lat="43.92687" lon="5.12082">
        <ele>226.53</ele>
        <time>2018-03-12T09:53:52Z</time>
      </trkpt>
      <trkpt lat="43.92697" lon="5.12092">
        <ele>227.49</ele>
        <time>2018-03-12T09:54:06Z</time>
      </trkpt>
      <trkpt lat="43.92706" lon="5.12105">
        <ele>229.41</ele>
        <time>2018-03-12T09:54:24Z</time>
      </trkpt>
      <trkpt lat="43.92717" lon="5.12112">
        <ele>230.85</ele>
        <time>2018-03-12T09:54:40Z</time>
      </trkpt>
      <trkpt lat="43.9273" lon="5.12122">
        <ele>231.33</ele>
        <time>2018-03-12T09:54:54Z</time>
      </trkpt>
      <trkpt lat="43.92742" lon="5.1212">
        <ele>232.78</ele>
        <time>2018-03-12T09:55:09Z</time>
      </trkpt>
      <trkpt lat="43.92752" lon="5.12121">
        <ele>233.26</ele>
        <time>2018-03-12T09:55:23Z</time>
      </trkpt>
      <trkpt lat="43.92763" lon="5.12126">
        <ele>234.7</ele>
        <time>2018-03-12T09:55:38Z</time>
      </trkpt>
      <trkpt lat="43.92774" lon="5.12128">
        <ele>236.62</ele>
        <time>2018-03-12T09:55:54Z</time>
      </trkpt>
      <trkpt lat="43.92788" lon="5.12128">
        <ele>238.06</ele>
        <time>2018-03-12T09:56:08Z</time>
      </trkpt>
      <trkpt lat="43.92796" lon="5.12137">
        <ele>239.99</ele>
        <time>2018-03-12T09:56:24Z</time>
      </trkpt>
      <trkpt lat="43.92807" lon="5.12143">
        <ele>241.91</ele>
        <time>2018-03-12T09:56:40Z</time>
      </trkpt>
      <trkpt lat="43.9282" lon="5.12147">
        <ele>242.87</ele>
        <time>2018-03-12T09:56:55Z</time>
      </trkpt>
      <trkpt lat="43.92829" lon="5.12153">
        <ele>244.79</ele>
        <time>2018-03-12T09:57:11Z</time>
      </trkpt>
      <trkpt lat="43.9284" lon="5.12158">
        <ele>247.68</ele>
        <time>2018-03-12T09:57:28Z</time>
      </trkpt>
      <trkpt lat="43.92852" lon="5.12161">
        <ele>248.64</ele>
        <time>2018-03-12T09:57:43Z</time>
      </trkpt>
      <trkpt lat="43.92861" lon="5.12164">
        <ele>251.04</ele>
        <time>2018-03-12T09:58:00Z</time>
      </trkpt>
      <trkpt lat="43.92863" lon="5.12165">
        <ele>251.04</ele>
        <time>2018-03-12T09:58:26Z</time>
      </trkpt>
      <trkpt lat="43.92865" lon="5.12165">
        <ele>251.04</ele>
        <time>2018-03-12T09:58:55Z</time>
      </trkpt>
      <trkpt lat="43.92862" lon="5.12169">
        <ele>251.04</ele>
        <time>2018-03-12T09:59:32Z</time>
      </trkpt>
      <trkpt lat="43.92862" lon="5.12171">
        <ele>250.56</ele>
        <time>2018-03-12T10:00:02Z</time>
      </trkpt>
      <trkpt lat="43.92865" lon="5.12172">
        <ele>250.56</ele>
        <time>2018-03-12T10:00:37Z</time>
      </trkpt>
      <trkpt lat="43.92874" lon="5.12172">
        <ele>251.52</ele>
        <time>2018-03-12T10:00:51Z</time>
      </trkpt>
      <trkpt lat="43.92882" lon="5.12176">
        <ele>253.44</ele>
        <time>2018-03-12T10:01:04Z</time>
      </trkpt>
      <trkpt lat="43.92889" lon="5.12179">
        <ele>254.89</ele>
        <time>2018-03-12T10:01:17Z</time>
      </trkpt>
      <trkpt lat="43.92897" lon="5.12177">
        <ele>255.37</ele>
        <time>2018-03-12T10:01:30Z</time>
      </trkpt>
      <trkpt lat="43.9291" lon="5.12179">
        <ele>257.29</ele>
        <time>2018-03-12T10:01:48Z</time>
      </trkpt>
      <trkpt lat="43.92926" lon="5.12181">
        <ele>259.69</ele>
        <time>2018-03-12T10:02:04Z</time>
      </trkpt>
      <trkpt lat="43.92935" lon="5.12187">
        <ele>260.65</ele>
        <time>2018-03-12T10:02:18Z</time>
      </trkpt>
      <trkpt lat="43.92946" lon="5.12193">
        <ele>262.58</ele>
        <time>2018-03-12T10:02:34Z</time>
      </trkpt>
      <trkpt lat="43.92958" lon="5.12201">
        <ele>264.02</ele>
        <time>2018-03-12T10:02:50Z</time>
      </trkpt>
      <trkpt lat="43.9297" lon="5.12207">
        <ele>265.94</ele>
        <time>2018-03-12T10:03:04Z</time>
      </trkpt>
      <trkpt lat="43.9298" lon="5.12214">
        <ele>266.9</ele>
        <time>2018-03-12T10:03:19Z</time>
      </trkpt>
      <trkpt lat="43.9299" lon="5.12222">
        <ele>268.35</ele>
        <time>2018-03-12T10:03:33Z</time>
      </trkpt>
      <trkpt lat="43.92999" lon="5.12228">
        <ele>269.79</ele>
        <time>2018-03-12T10:03:45Z</time>
      </trkpt>
      <trkpt lat="43.93007" lon="5.12233">
        <ele>271.23</ele>
        <time>2018-03-12T10:03:59Z</time>
      </trkpt>
      <trkpt lat="43.9302" lon="5.12237">
        <ele>272.19</ele>
        <time>2018-03-12T10:04:13Z</time>
      </trkpt>
      <trkpt lat="43.93028" lon="5.12243">
        <ele>274.11</ele>
        <time>2018-03-12T10:04:26Z</time>
      </trkpt>
      <trkpt lat="43.93035" lon="5.12248">
        <ele>275.56</ele>
        <time>2018-03-12T10:04:39Z</time>
      </trkpt>
      <trkpt lat="43.93048" lon="5.12253">
        <ele>277.48</ele>
        <time>2018-03-12T10:04:56Z</time>
      </trkpt>
      <trkpt lat="43.93061" lon="5.12254">
        <ele>278.92</ele>
        <time>2018-03-12T10:05:10Z</time>
      </trkpt>
      <trkpt lat="43.93071" lon="5.12253">
        <ele>279.88</ele>
        <time>2018-03-12T10:05:22Z</time>
      </trkpt>
      <trkpt lat="43.93081" lon="5.12257">
        <ele>281.32</ele>
        <time>2018-03-12T10:05:35Z</time>
      </trkpt>
      <trkpt lat="43.93094" lon="5.12265">
        <ele>283.25</ele>
        <time>2018-03-12T10:05:50Z</time>
      </trkpt>
      <trkpt lat="43.93105" lon="5.12271">
        <ele>283.73</ele>
        <time>2018-03-12T10:06:04Z</time>
      </trkpt>
      <trkpt lat="43.93121" lon="5.12272">
        <ele>285.17</ele>
        <time>2018-03-12T10:06:19Z</time>
      </trkpt>
      <trkpt lat="43.93135" lon="5.1227">
        <ele>286.61</ele>
        <time>2018-03-12T10:06:34Z</time>
      </trkpt>
      <trkpt lat="43.93153" lon="5.12271">
        <ele>287.57</ele>
        <time>2018-03-12T10:06:50Z</time>
      </trkpt>
      <trkpt lat="43.93164" lon="5.12269">
        <ele>289.01</ele>
        <time>2018-03-12T10:07:05Z</time>
      </trkpt>
      <trkpt lat="43.93178" lon="5.12266">
        <ele>290.46</ele>
        <time>2018-03-12T10:07:19Z</time>
      </trkpt>
      <trkpt lat="43.93193" lon="5.12265">
        <ele>291.9</ele>
        <time>2018-03-12T10:07:33Z</time>
      </trkpt>
      <trkpt lat="43.93204" lon="5.1227">
        <ele>293.34</ele>
        <time>2018-03-12T10:07:47Z</time>
      </trkpt>
      <trkpt lat="43.9322" lon="5.12272">
        <ele>294.78</ele>
        <time>2018-03-12T10:08:03Z</time>
      </trkpt>
      <trkpt lat="43.93226" lon="5.12272">
        <ele>295.26</ele>
        <time>2018-03-12T10:08:18Z</time>
      </trkpt>
      <trkpt lat="43.93234" lon="5.12272">
        <ele>296.22</ele>
        <time>2018-03-12T10:08:34Z</time>
      </trkpt>
      <trkpt lat="43.93239" lon="5.1227">
        <ele>296.22</ele>
        <time>2018-03-12T10:08:50Z</time>
      </trkpt>
      <trkpt lat="43.93251" lon="5.12271">
        <ele>297.18</ele>
        <time>2018-03-12T10:09:06Z</time>
      </trkpt>
      <trkpt lat="43.93266" lon="5.12271">
        <ele>298.63</ele>
        <time>2018-03-12T10:09:21Z</time>
      </trkpt>
      <trkpt lat="43.93283" lon="5.12268">
        <ele>300.07</ele>
        <time>2018-03-12T10:09:39Z</time>
      </trkpt>
      <trkpt lat="43.93297" lon="5.12267">
        <ele>301.99</ele>
        <time>2018-03-12T10:09:55Z</time>
      </trkpt>
      <trkpt lat="43.93315" lon="5.12273">
        <ele>303.43</ele>
        <time>2018-03-12T10:10:13Z</time>
      </trkpt>
      <trkpt lat="43.93325" lon="5.12272">
        <ele>304.39</ele>
        <time>2018-03-12T10:10:26Z</time>
      </trkpt>
      <trkpt lat="43.93343" lon="5.1227">
        <ele>305.84</ele>
        <time>2018-03-12T10:10:43Z</time>
      </trkpt>
      <trkpt lat="43.93355" lon="5.12274">
        <ele>306.8</ele>
        <time>2018-03-12T10:10:59Z</time>
      </trkpt>
      <trkpt lat="43.93372" lon="5.12278">
        <ele>308.24</ele>
        <time>2018-03-12T10:11:12Z</time>
      </trkpt>
      <trkpt lat="43.93372" lon="5.12278">
        <ele>307.76</ele>
        <time>2018-03-12T10:11:13Z</time>
      </trkpt>
      <trkpt lat="43.93375" lon="5.12278">
        <ele>310.64</ele>
        <time>2018-03-12T10:11:15Z</time>
      </trkpt>
      <trkpt lat="43.93385" lon="5.12284">
        <ele>309.2</ele>
        <time>2018-03-12T10:11:31Z</time>
      </trkpt>
      <trkpt lat="43.93397" lon="5.12287">
        <ele>310.16</ele>
        <time>2018-03-12T10:11:44Z</time>
      </trkpt>
      <trkpt lat="43.93407" lon="5.12285">
        <ele>310.16</ele>
        <time>2018-03-12T10:11:56Z</time>
      </trkpt>
      <trkpt lat="43.93409" lon="5.12286">
        <ele>310.16</ele>
        <time>2018-03-12T10:12:14Z</time>
      </trkpt>
      <trkpt lat="43.93412" lon="5.12283">
        <ele>310.64</ele>
        <time>2018-03-12T10:12:37Z</time>
      </trkpt>
      <trkpt lat="43.93415" lon="5.12282">
        <ele>310.64</ele>
        <time>2018-03-12T10:12:59Z</time>
      </trkpt>
      <trkpt lat="43.93418" lon="5.12278">
        <ele>310.64</ele>
        <time>2018-03-12T10:13:20Z</time>
      </trkpt>
      <trkpt lat="43.93423" lon="5.1226">
        <ele>309.2</ele>
        <time>2018-03-12T10:13:38Z</time>
      </trkpt>
      <trkpt lat="43.93427" lon="5.12246">
        <ele>308.24</ele>
        <time>2018-03-12T10:13:52Z</time>
      </trkpt>
      <trkpt lat="43.93432" lon="5.12229">
        <ele>306.32</ele>
        <time>2018-03-12T10:14:06Z</time>
      </trkpt>
      <trkpt lat="43.93432" lon="5.12228">
        <ele>306.32</ele>
        <time>2018-03-12T10:14:07Z</time>
      </trkpt>
      <trkpt lat="43.93438" lon="5.12213">
        <ele>305.36</ele>
        <time>2018-03-12T10:14:21Z</time>
      </trkpt>
      <trkpt lat="43.93445" lon="5.12209">
        <ele>305.36</ele>
        <time>2018-03-12T10:14:35Z</time>
      </trkpt>
      <trkpt lat="43.93454" lon="5.12212">
        <ele>305.36</ele>
        <time>2018-03-12T10:14:53Z</time>
      </trkpt>
      <trkpt lat="43.93471" lon="5.12214">
        <ele>307.28</ele>
        <time>2018-03-12T10:15:11Z</time>
      </trkpt>
      <trkpt lat="43.93481" lon="5.12223">
        <ele>308.72</ele>
        <time>2018-03-12T10:15:28Z</time>
      </trkpt>
      <trkpt lat="43.93474" lon="5.12237">
        <ele>309.2</ele>
        <time>2018-03-12T10:15:43Z</time>
      </trkpt>
      <trkpt lat="43.93469" lon="5.1225">
        <ele>309.2</ele>
        <time>2018-03-12T10:16:00Z</time>
      </trkpt>
      <trkpt lat="43.93469" lon="5.12252">
        <ele>309.2</ele>
        <time>2018-03-12T10:16:15Z</time>
      </trkpt>
      <trkpt lat="43.9347" lon="5.12256">
        <ele>309.2</ele>
        <time>2018-03-12T10:16:31Z</time>
      </trkpt>
      <trkpt lat="43.93464" lon="5.12256">
        <ele>309.68</ele>
        <time>2018-03-12T10:16:46Z</time>
      </trkpt>
      <trkpt lat="43.93469" lon="5.12256">
        <ele>309.68</ele>
        <time>2018-03-12T10:17:11Z</time>
      </trkpt>
      <trkpt lat="43.93469" lon="5.12255">
        <ele>309.68</ele>
        <time>2018-03-12T10:17:36Z</time>
      </trkpt>
      <trkpt lat="43.9347" lon="5.12258">
        <ele>309.68</ele>
        <time>2018-03-12T10:18:11Z</time>
      </trkpt>
      <trkpt lat="43.93465" lon="5.12257">
        <ele>309.68</ele>
        <time>2018-03-12T10:18:36Z</time>
      </trkpt>
      <trkpt lat="43.93466" lon="5.12257">
        <ele>309.68</ele>
        <time>2018-03-12T10:19:01Z</time>
      </trkpt>
      <trkpt lat="43.93467" lon="5.12252">
        <ele>309.68</ele>
        <time>2018-03-12T10:19:18Z</time>
      </trkpt>
      <trkpt lat="43.93467" lon="5.12251">
        <ele>309.68</ele>
        <time>2018-03-12T10:19:32Z</time>
      </trkpt>
      <trkpt lat="43.93469" lon="5.12248">
        <ele>309.68</ele>
        <time>2018-03-12T10:19:51Z</time>
      </trkpt>
      <trkpt lat="43.93471" lon="5.12244">
        <ele>309.68</ele>
        <time>2018-03-12T10:20:11Z</time>
      </trkpt>
      <trkpt lat="43.93476" lon="5.12225">
        <ele>308.72</ele>
        <time>2018-03-12T10:20:27Z</time>
      </trkpt>
      <trkpt lat="43.93472" lon="5.12213">
        <ele>307.76</ele>
        <time>2018-03-12T10:20:42Z</time>
      </trkpt>
      <trkpt lat="43.93456" lon="5.12211">
        <ele>306.32</ele>
        <time>2018-03-12T10:21:02Z</time>
      </trkpt>
      <trkpt lat="43.93442" lon="5.12199">
        <ele>304.39</ele>
        <time>2018-03-12T10:21:22Z</time>
      </trkpt>
      <trkpt lat="43.93449" lon="5.12184">
        <ele>302.95</ele>
        <time>2018-03-12T10:21:36Z</time>
      </trkpt>
      <trkpt lat="43.93455" lon="5.12167">
        <ele>302.47</ele>
        <time>2018-03-12T10:21:53Z</time>
      </trkpt>
      <trkpt lat="43.93459" lon="5.1216">
        <ele>301.99</ele>
        <time>2018-03-12T10:22:07Z</time>
      </trkpt>
      <trkpt lat="43.9346" lon="5.12152">
        <ele>301.51</ele>
        <time>2018-03-12T10:22:22Z</time>
      </trkpt>
      <trkpt lat="43.93463" lon="5.12133">
        <ele>301.03</ele>
        <time>2018-03-12T10:22:39Z</time>
      </trkpt>
      <trkpt lat="43.93463" lon="5.12119">
        <ele>300.55</ele>
        <time>2018-03-12T10:22:57Z</time>
      </trkpt>
      <trkpt lat="43.93464" lon="5.12118">
        <ele>300.55</ele>
        <time>2018-03-12T10:23:20Z</time>
      </trkpt>
      <trkpt lat="43.93465" lon="5.12095">
        <ele>300.07</ele>
        <time>2018-03-12T10:23:39Z</time>
      </trkpt>
      <trkpt lat="43.93464" lon="5.12069">
        <ele>299.11</ele>
        <time>2018-03-12T10:24:00Z</time>
      </trkpt>
      <trkpt lat="43.93454" lon="5.12045">
        <ele>298.15</ele>
        <time>2018-03-12T10:24:19Z</time>
      </trkpt>
      <trkpt lat="43.9344" lon="5.12024">
        <ele>297.67</ele>
        <time>2018-03-12T10:24:38Z</time>
      </trkpt>
      <trkpt lat="43.93427" lon="5.12006">
        <ele>296.7</ele>
        <time>2018-03-12T10:24:57Z</time>
      </trkpt>
      <trkpt lat="43.93418" lon="5.11987">
        <ele>296.22</ele>
        <time>2018-03-12T10:25:15Z</time>
      </trkpt>
      <trkpt lat="43.93411" lon="5.11978">
        <ele>297.67</ele>
        <time>2018-03-12T10:25:30Z</time>
      </trkpt>
      <trkpt lat="43.93402" lon="5.1197">
        <ele>298.63</ele>
        <time>2018-03-12T10:25:46Z</time>
      </trkpt>
      <trkpt lat="43.9339" lon="5.11964">
        <ele>298.63</ele>
        <time>2018-03-12T10:26:04Z</time>
      </trkpt>
      <trkpt lat="43.93382" lon="5.11959">
        <ele>298.63</ele>
        <time>2018-03-12T10:26:17Z</time>
      </trkpt>
      <trkpt lat="43.93373" lon="5.11948">
        <ele>297.18</ele>
        <time>2018-03-12T10:26:33Z</time>
      </trkpt>
      <trkpt lat="43.93372" lon="5.11947">
        <ele>297.18</ele>
        <time>2018-03-12T10:26:34Z</time>
      </trkpt>
      <trkpt lat="43.93364" lon="5.11938">
        <ele>297.18</ele>
        <time>2018-03-12T10:26:47Z</time>
      </trkpt>
      <trkpt lat="43.93352" lon="5.1193">
        <ele>296.22</ele>
        <time>2018-03-12T10:27:05Z</time>
      </trkpt>
      <trkpt lat="43.93341" lon="5.11914">
        <ele>295.74</ele>
        <time>2018-03-12T10:27:22Z</time>
      </trkpt>
      <trkpt lat="43.93331" lon="5.119">
        <ele>295.74</ele>
        <time>2018-03-12T10:27:38Z</time>
      </trkpt>
      <trkpt lat="43.93321" lon="5.11882">
        <ele>294.78</ele>
        <time>2018-03-12T10:27:55Z</time>
      </trkpt>
      <trkpt lat="43.93312" lon="5.11873">
        <ele>294.3</ele>
        <time>2018-03-12T10:28:11Z</time>
      </trkpt>
      <trkpt lat="43.93301" lon="5.11859">
        <ele>293.34</ele>
        <time>2018-03-12T10:28:28Z</time>
      </trkpt>
      <trkpt lat="43.93297" lon="5.11847">
        <ele>292.38</ele>
        <time>2018-03-12T10:28:42Z</time>
      </trkpt>
      <trkpt lat="43.93297" lon="5.11834">
        <ele>291.42</ele>
        <time>2018-03-12T10:28:57Z</time>
      </trkpt>
      <trkpt lat="43.93298" lon="5.11818">
        <ele>289.49</ele>
        <time>2018-03-12T10:29:11Z</time>
      </trkpt>
      <trkpt lat="43.93299" lon="5.11815">
        <ele>288.53</ele>
        <time>2018-03-12T10:29:28Z</time>
      </trkpt>
      <trkpt lat="43.933" lon="5.11813">
        <ele>288.53</ele>
        <time>2018-03-12T10:29:49Z</time>
      </trkpt>
      <trkpt lat="43.93307" lon="5.11806">
        <ele>288.05</ele>
        <time>2018-03-12T10:30:17Z</time>
      </trkpt>
      <trkpt lat="43.93317" lon="5.11798">
        <ele>286.61</ele>
        <time>2018-03-12T10:30:34Z</time>
      </trkpt>
      <trkpt lat="43.93327" lon="5.11791">
        <ele>285.65</ele>
        <time>2018-03-12T10:30:50Z</time>
      </trkpt>
      <trkpt lat="43.93334" lon="5.1178">
        <ele>284.21</ele>
        <time>2018-03-12T10:31:04Z</time>
      </trkpt>
      <trkpt lat="43.93336" lon="5.1177">
        <ele>282.77</ele>
        <time>2018-03-12T10:31:19Z</time>
      </trkpt>
      <trkpt lat="43.93325" lon="5.11772">
        <ele>279.88</ele>
        <time>2018-03-12T10:31:38Z</time>
      </trkpt>
      <trkpt lat="43.93316" lon="5.11775">
        <ele>278.92</ele>
        <time>2018-03-12T10:31:52Z</time>
      </trkpt>
      <trkpt lat="43.93306" lon="5.11776">
        <ele>276.52</ele>
        <time>2018-03-12T10:32:06Z</time>
      </trkpt>
      <trkpt lat="43.93297" lon="5.11777">
        <ele>274.59</ele>
        <time>2018-03-12T10:32:22Z</time>
      </trkpt>
      <trkpt lat="43.93292" lon="5.11775">
        <ele>272.67</ele>
        <time>2018-03-12T10:32:37Z</time>
      </trkpt>
      <trkpt lat="43.93289" lon="5.11766">
        <ele>271.23</ele>
        <time>2018-03-12T10:32:54Z</time>
      </trkpt>
      <trkpt lat="43.93279" lon="5.11768">
        <ele>268.35</ele>
        <time>2018-03-12T10:33:10Z</time>
      </trkpt>
      <trkpt lat="43.93273" lon="5.11774">
        <ele>266.9</ele>
        <time>2018-03-12T10:33:29Z</time>
      </trkpt>
      <trkpt lat="43.93275" lon="5.11771">
        <ele>264.98</ele>
        <time>2018-03-12T10:33:43Z</time>
      </trkpt>
      <trkpt lat="43.93278" lon="5.11767">
        <ele>263.54</ele>
        <time>2018-03-12T10:33:55Z</time>
      </trkpt>
      <trkpt lat="43.93284" lon="5.11757">
        <ele>262.1</ele>
        <time>2018-03-12T10:34:10Z</time>
      </trkpt>
      <trkpt lat="43.93288" lon="5.11747">
        <ele>260.17</ele>
        <time>2018-03-12T10:34:25Z</time>
      </trkpt>
      <trkpt lat="43.93293" lon="5.11741">
        <ele>258.25</ele>
        <time>2018-03-12T10:34:39Z</time>
      </trkpt>
      <trkpt lat="43.93298" lon="5.11732">
        <ele>256.33</ele>
        <time>2018-03-12T10:34:55Z</time>
      </trkpt>
      <trkpt lat="43.93301" lon="5.11722">
        <ele>254.41</ele>
        <time>2018-03-12T10:35:10Z</time>
      </trkpt>
      <trkpt lat="43.93304" lon="5.11713">
        <ele>252.48</ele>
        <time>2018-03-12T10:35:22Z</time>
      </trkpt>
      <trkpt lat="43.93307" lon="5.11706">
        <ele>251.04</ele>
        <time>2018-03-12T10:35:35Z</time>
      </trkpt>
      <trkpt lat="43.93311" lon="5.11702">
        <ele>249.12</ele>
        <time>2018-03-12T10:35:49Z</time>
      </trkpt>
      <trkpt lat="43.9332" lon="5.11693">
        <ele>246.72</ele>
        <time>2018-03-12T10:36:07Z</time>
      </trkpt>
      <trkpt lat="43.93327" lon="5.11688">
        <ele>245.75</ele>
        <time>2018-03-12T10:36:20Z</time>
      </trkpt>
      <trkpt lat="43.93337" lon="5.11682">
        <ele>244.31</ele>
        <time>2018-03-12T10:36:34Z</time>
      </trkpt>
      <trkpt lat="43.93349" lon="5.11677">
        <ele>241.91</ele>
        <time>2018-03-12T10:36:53Z</time>
      </trkpt>
      <trkpt lat="43.93357" lon="5.11673">
        <ele>240.95</ele>
        <time>2018-03-12T10:37:08Z</time>
      </trkpt>
      <trkpt lat="43.93361" lon="5.11665">
        <ele>240.47</ele>
        <time>2018-03-12T10:37:31Z</time>
      </trkpt>
      <trkpt lat="43.93362" lon="5.11662">
        <ele>240.47</ele>
        <time>2018-03-12T10:37:57Z</time>
      </trkpt>
      <trkpt lat="43.93365" lon="5.11653">
        <ele>240.47</ele>
        <time>2018-03-12T10:38:24Z</time>
      </trkpt>
      <trkpt lat="43.93371" lon="5.11641">
        <ele>239.51</ele>
        <time>2018-03-12T10:38:38Z</time>
      </trkpt>
      <trkpt lat="43.93379" lon="5.11632">
        <ele>238.06</ele>
        <time>2018-03-12T10:38:55Z</time>
      </trkpt>
      <trkpt lat="43.93388" lon="5.11627">
        <ele>237.1</ele>
        <time>2018-03-12T10:39:10Z</time>
      </trkpt>
      <trkpt lat="43.93394" lon="5.11619">
        <ele>235.66</ele>
        <time>2018-03-12T10:39:24Z</time>
      </trkpt>
      <trkpt lat="43.93401" lon="5.11604">
        <ele>233.74</ele>
        <time>2018-03-12T10:39:38Z</time>
      </trkpt>
      <trkpt lat="43.9341" lon="5.11592">
        <ele>232.3</ele>
        <time>2018-03-12T10:39:55Z</time>
      </trkpt>
      <trkpt lat="43.93422" lon="5.11581">
        <ele>230.85</ele>
        <time>2018-03-12T10:40:10Z</time>
      </trkpt>
      <trkpt lat="43.93435" lon="5.11572">
        <ele>229.41</ele>
        <time>2018-03-12T10:40:25Z</time>
      </trkpt>
      <trkpt lat="43.93446" lon="5.11565">
        <ele>228.93</ele>
        <time>2018-03-12T10:40:38Z</time>
      </trkpt>
      <trkpt lat="43.93457" lon="5.11564">
        <ele>227.97</ele>
        <time>2018-03-12T10:40:53Z</time>
      </trkpt>
      <trkpt lat="43.93468" lon="5.11562">
        <ele>227.01</ele>
        <time>2018-03-12T10:41:07Z</time>
      </trkpt>
      <trkpt lat="43.93478" lon="5.1156">
        <ele>225.57</ele>
        <time>2018-03-12T10:41:20Z</time>
      </trkpt>
      <trkpt lat="43.93486" lon="5.11558">
        <ele>225.09</ele>
        <time>2018-03-12T10:41:33Z</time>
      </trkpt>
      <trkpt lat="43.93502" lon="5.11545">
        <ele>226.05</ele>
        <time>2018-03-12T10:41:49Z</time>
      </trkpt>
      <trkpt lat="43.935" lon="5.11528">
        <ele>227.97</ele>
        <time>2018-03-12T10:42:03Z</time>
      </trkpt>
      <trkpt lat="43.93493" lon="5.11515">
        <ele>229.41</ele>
        <time>2018-03-12T10:42:19Z</time>
      </trkpt>
      <trkpt lat="43.93487" lon="5.11503">
        <ele>231.81</ele>
        <time>2018-03-12T10:42:35Z</time>
      </trkpt>
      <trkpt lat="43.93483" lon="5.11495">
        <ele>232.78</ele>
        <time>2018-03-12T10:42:49Z</time>
      </trkpt>
      <trkpt lat="43.93474" lon="5.11484">
        <ele>234.7</ele>
        <time>2018-03-12T10:43:07Z</time>
      </trkpt>
      <trkpt lat="43.93468" lon="5.11474">
        <ele>236.14</ele>
        <time>2018-03-12T10:43:21Z</time>
      </trkpt>
      <trkpt lat="43.93457" lon="5.11462">
        <ele>237.58</ele>
        <time>2018-03-12T10:43:37Z</time>
      </trkpt>
      <trkpt lat="43.93448" lon="5.11452">
        <ele>239.02</ele>
        <time>2018-03-12T10:43:53Z</time>
      </trkpt>
      <trkpt lat="43.93439" lon="5.11442">
        <ele>240.47</ele>
        <time>2018-03-12T10:44:10Z</time>
      </trkpt>
      <trkpt lat="43.93432" lon="5.11433">
        <ele>241.91</ele>
        <time>2018-03-12T10:44:26Z</time>
      </trkpt>
      <trkpt lat="43.93428" lon="5.11429">
        <ele>242.87</ele>
        <time>2018-03-12T10:44:44Z</time>
      </trkpt>
      <trkpt lat="43.93423" lon="5.11424">
        <ele>243.35</ele>
        <time>2018-03-12T10:44:57Z</time>
      </trkpt>
      <trkpt lat="43.93425" lon="5.11417">
        <ele>243.83</ele>
        <time>2018-03-12T10:45:30Z</time>
      </trkpt>
      <trkpt lat="43.93416" lon="5.1142">
        <ele>244.31</ele>
        <time>2018-03-12T10:45:49Z</time>
      </trkpt>
      <trkpt lat="43.93408" lon="5.1142">
        <ele>245.75</ele>
        <time>2018-03-12T10:46:04Z</time>
      </trkpt>
      <trkpt lat="43.93402" lon="5.11415">
        <ele>246.72</ele>
        <time>2018-03-12T10:46:27Z</time>
      </trkpt>
      <trkpt lat="43.93392" lon="5.11413">
        <ele>247.68</ele>
        <time>2018-03-12T10:46:44Z</time>
      </trkpt>
      <trkpt lat="43.93384" lon="5.11408">
        <ele>249.6</ele>
        <time>2018-03-12T10:47:00Z</time>
      </trkpt>
      <trkpt lat="43.93376" lon="5.11398">
        <ele>251.52</ele>
        <time>2018-03-12T10:47:19Z</time>
      </trkpt>
      <trkpt lat="43.93368" lon="5.11394">
        <ele>252.48</ele>
        <time>2018-03-12T10:47:35Z</time>
      </trkpt>
      <trkpt lat="43.93362" lon="5.11384">
        <ele>252.96</ele>
        <time>2018-03-12T10:47:50Z</time>
      </trkpt>
      <trkpt lat="43.93357" lon="5.11374">
        <ele>252.96</ele>
        <time>2018-03-12T10:48:05Z</time>
      </trkpt>
      <trkpt lat="43.93357" lon="5.11372">
        <ele>252.96</ele>
        <time>2018-03-12T10:48:33Z</time>
      </trkpt>
      <trkpt lat="43.93357" lon="5.1137">
        <ele>252.96</ele>
        <time>2018-03-12T10:49:03Z</time>
      </trkpt>
      <trkpt lat="43.93358" lon="5.11361">
        <ele>251.52</ele>
        <time>2018-03-12T10:49:17Z</time>
      </trkpt>
      <trkpt lat="43.93364" lon="5.11347">
        <ele>250.08</ele>
        <time>2018-03-12T10:49:32Z</time>
      </trkpt>
      <trkpt lat="43.93367" lon="5.11335">
        <ele>247.2</ele>
        <time>2018-03-12T10:49:47Z</time>
      </trkpt>
      <trkpt lat="43.93368" lon="5.1132">
        <ele>245.75</ele>
        <time>2018-03-12T10:50:02Z</time>
      </trkpt>
      <trkpt lat="43.9337" lon="5.11304">
        <ele>244.31</ele>
        <time>2018-03-12T10:50:17Z</time>
      </trkpt>
      <trkpt lat="43.93371" lon="5.11293">
        <ele>242.39</ele>
        <time>2018-03-12T10:50:30Z</time>
      </trkpt>
      <trkpt lat="43.93371" lon="5.11288">
        <ele>241.91</ele>
        <time>2018-03-12T10:50:54Z</time>
      </trkpt>
      <trkpt lat="43.9337" lon="5.11281">
        <ele>241.91</ele>
        <time>2018-03-12T10:51:11Z</time>
      </trkpt>
      <trkpt lat="43.93373" lon="5.11264">
        <ele>239.99</ele>
        <time>2018-03-12T10:51:27Z</time>
      </trkpt>
      <trkpt lat="43.93376" lon="5.11246">
        <ele>237.58</ele>
        <time>2018-03-12T10:51:43Z</time>
      </trkpt>
      <trkpt lat="43.93381" lon="5.11229">
        <ele>236.14</ele>
        <time>2018-03-12T10:52:01Z</time>
      </trkpt>
      <trkpt lat="43.93381" lon="5.11211">
        <ele>234.7</ele>
        <time>2018-03-12T10:52:17Z</time>
      </trkpt>
      <trkpt lat="43.93386" lon="5.11191">
        <ele>233.26</ele>
        <time>2018-03-12T10:52:36Z</time>
      </trkpt>
      <trkpt lat="43.93389" lon="5.11173">
        <ele>231.81</ele>
        <time>2018-03-12T10:52:52Z</time>
      </trkpt>
      <trkpt lat="43.93391" lon="5.11155">
        <ele>230.85</ele>
        <time>2018-03-12T10:53:08Z</time>
      </trkpt>
      <trkpt lat="43.93396" lon="5.11139">
        <ele>229.89</ele>
        <time>2018-03-12T10:53:23Z</time>
      </trkpt>
      <trkpt lat="43.93402" lon="5.11124">
        <ele>228.93</ele>
        <time>2018-03-12T10:53:36Z</time>
      </trkpt>
      <trkpt lat="43.9341" lon="5.11105">
        <ele>227.97</ele>
        <time>2018-03-12T10:53:52Z</time>
      </trkpt>
      <trkpt lat="43.93413" lon="5.1109">
        <ele>227.01</ele>
        <time>2018-03-12T10:54:07Z</time>
      </trkpt>
      <trkpt lat="43.93417" lon="5.11076">
        <ele>226.53</ele>
        <time>2018-03-12T10:54:23Z</time>
      </trkpt>
      <trkpt lat="43.93419" lon="5.11072">
        <ele>226.53</ele>
        <time>2018-03-12T10:54:27Z</time>
      </trkpt>
      <trkpt lat="43.93422" lon="5.11056">
        <ele>225.57</ele>
        <time>2018-03-12T10:54:41Z</time>
      </trkpt>
      <trkpt lat="43.93429" lon="5.11038">
        <ele>225.57</ele>
        <time>2018-03-12T10:54:57Z</time>
      </trkpt>
      <trkpt lat="43.93434" lon="5.11021">
        <ele>224.12</ele>
        <time>2018-03-12T10:55:11Z</time>
      </trkpt>
      <trkpt lat="43.93439" lon="5.10998">
        <ele>224.12</ele>
        <time>2018-03-12T10:55:27Z</time>
      </trkpt>
      <trkpt lat="43.93445" lon="5.10972">
        <ele>223.16</ele>
        <time>2018-03-12T10:55:48Z</time>
      </trkpt>
      <trkpt lat="43.93444" lon="5.10971">
        <ele>223.64</ele>
        <time>2018-03-12T10:56:01Z</time>
      </trkpt>
      <trkpt lat="43.93447" lon="5.10969">
        <ele>223.64</ele>
        <time>2018-03-12T10:56:18Z</time>
      </trkpt>
      <trkpt lat="43.93441" lon="5.10953">
        <ele>222.68</ele>
        <time>2018-03-12T10:56:34Z</time>
      </trkpt>
      <trkpt lat="43.93437" lon="5.10941">
        <ele>221.72</ele>
        <time>2018-03-12T10:56:50Z</time>
      </trkpt>
      <trkpt lat="43.93432" lon="5.1094">
        <ele>221.72</ele>
        <time>2018-03-12T10:57:03Z</time>
      </trkpt>
      <trkpt lat="43.93425" lon="5.10935">
        <ele>221.24</ele>
        <time>2018-03-12T10:57:18Z</time>
      </trkpt>
      <trkpt lat="43.93417" lon="5.10933">
        <ele>219.8</ele>
        <time>2018-03-12T10:57:34Z</time>
      </trkpt>
      <trkpt lat="43.93409" lon="5.10928">
        <ele>218.36</ele>
        <time>2018-03-12T10:57:51Z</time>
      </trkpt>
      <trkpt lat="43.93403" lon="5.10923">
        <ele>217.88</ele>
        <time>2018-03-12T10:58:08Z</time>
      </trkpt>
      <trkpt lat="43.934" lon="5.10921">
        <ele>217.4</ele>
        <time>2018-03-12T10:58:36Z</time>
      </trkpt>
      <trkpt lat="43.93398" lon="5.10916">
        <ele>217.4</ele>
        <time>2018-03-12T10:59:08Z</time>
      </trkpt>
      <trkpt lat="43.93387" lon="5.10909">
        <ele>215.95</ele>
        <time>2018-03-12T10:59:24Z</time>
      </trkpt>
      <trkpt lat="43.93378" lon="5.10898">
        <ele>214.51</ele>
        <time>2018-03-12T10:59:42Z</time>
      </trkpt>
      <trkpt lat="43.93371" lon="5.10895">
        <ele>213.55</ele>
        <time>2018-03-12T10:59:56Z</time>
      </trkpt>
      <trkpt lat="43.93363" lon="5.10892">
        <ele>212.11</ele>
        <time>2018-03-12T11:00:11Z</time>
      </trkpt>
      <trkpt lat="43.93357" lon="5.10885">
        <ele>211.15</ele>
        <time>2018-03-12T11:00:25Z</time>
      </trkpt>
      <trkpt lat="43.93349" lon="5.10874">
        <ele>209.7</ele>
        <time>2018-03-12T11:00:43Z</time>
      </trkpt>
      <trkpt lat="43.93337" lon="5.10873">
        <ele>208.26</ele>
        <time>2018-03-12T11:01:00Z</time>
      </trkpt>
      <trkpt lat="43.93326" lon="5.1087">
        <ele>207.3</ele>
        <time>2018-03-12T11:01:15Z</time>
      </trkpt>
      <trkpt lat="43.93311" lon="5.10868">
        <ele>206.82</ele>
        <time>2018-03-12T11:01:34Z</time>
      </trkpt>
      <trkpt lat="43.93298" lon="5.10867">
        <ele>206.34</ele>
        <time>2018-03-12T11:01:52Z</time>
      </trkpt>
      <trkpt lat="43.93294" lon="5.10858">
        <ele>205.38</ele>
        <time>2018-03-12T11:02:07Z</time>
      </trkpt>
      <trkpt lat="43.93293" lon="5.10856">
        <ele>206.34</ele>
        <time>2018-03-12T11:02:25Z</time>
      </trkpt>
      <trkpt lat="43.93293" lon="5.10855">
        <ele>204.42</ele>
        <time>2018-03-12T11:02:40Z</time>
      </trkpt>
      <trkpt lat="43.93292" lon="5.10854">
        <ele>204.9</ele>
        <time>2018-03-12T11:03:04Z</time>
      </trkpt>
      <trkpt lat="43.93291" lon="5.10855">
        <ele>204.42</ele>
        <time>2018-03-12T11:03:41Z</time>
      </trkpt>
      <trkpt lat="43.93291" lon="5.10854">
        <ele>204.9</ele>
        <time>2018-03-12T11:04:12Z</time>
      </trkpt>
      <trkpt lat="43.93293" lon="5.10851">
        <ele>204.9</ele>
        <time>2018-03-12T11:04:39Z</time>
      </trkpt>
      <trkpt lat="43.93293" lon="5.1085">
        <ele>204.9</ele>
        <time>2018-03-12T11:05:13Z</time>
      </trkpt>
      <trkpt lat="43.93291" lon="5.10852">
        <ele>205.38</ele>
        <time>2018-03-12T11:05:40Z</time>
      </trkpt>
      <trkpt lat="43.93291" lon="5.10851">
        <ele>205.38</ele>
        <time>2018-03-12T11:06:17Z</time>
      </trkpt>
      <trkpt lat="43.93292" lon="5.10849">
        <ele>205.86</ele>
        <time>2018-03-12T11:06:44Z</time>
      </trkpt>
      <trkpt lat="43.93292" lon="5.10853">
        <ele>205.86</ele>
        <time>2018-03-12T11:07:18Z</time>
      </trkpt>
      <trkpt lat="43.93291" lon="5.10854">
        <ele>206.34</ele>
        <time>2018-03-12T11:07:46Z</time>
      </trkpt>
      <trkpt lat="43.9329" lon="5.10851">
        <ele>206.34</ele>
        <time>2018-03-12T11:08:23Z</time>
      </trkpt>
      <trkpt lat="43.93287" lon="5.10855">
        <ele>206.82</ele>
        <time>2018-03-12T11:09:00Z</time>
      </trkpt>
      <trkpt lat="43.9329" lon="5.10853">
        <ele>206.82</ele>
        <time>2018-03-12T11:09:28Z</time>
      </trkpt>
      <trkpt lat="43.93289" lon="5.10852">
        <ele>206.82</ele>
        <time>2018-03-12T11:10:14Z</time>
      </trkpt>
      <trkpt lat="43.93288" lon="5.10853">
        <ele>206.82</ele>
        <time>2018-03-12T11:10:45Z</time>
      </trkpt>
      <trkpt lat="43.93293" lon="5.10852">
        <ele>206.82</ele>
        <time>2018-03-12T11:11:25Z</time>
      </trkpt>
      <trkpt lat="43.93292" lon="5.10851">
        <ele>207.3</ele>
        <time>2018-03-12T11:12:09Z</time>
      </trkpt>
      <trkpt lat="43.93292" lon="5.1085">
        <ele>207.3</ele>
        <time>2018-03-12T11:12:48Z</time>
      </trkpt>
      <trkpt lat="43.9329" lon="5.10853">
        <ele>207.3</ele>
        <time>2018-03-12T11:13:14Z</time>
      </trkpt>
      <trkpt lat="43.9329" lon="5.10852">
        <ele>207.78</ele>
        <time>2018-03-12T11:13:44Z</time>
      </trkpt>
      <trkpt lat="43.93292" lon="5.10852">
        <ele>207.78</ele>
        <time>2018-03-12T11:14:13Z</time>
      </trkpt>
      <trkpt lat="43.93292" lon="5.10851">
        <ele>207.78</ele>
        <time>2018-03-12T11:14:46Z</time>
      </trkpt>
      <trkpt lat="43.93292" lon="5.10851">
        <ele>208.26</ele>
        <time>2018-03-12T11:15:08Z</time>
      </trkpt>
      <trkpt lat="43.93293" lon="5.10849">
        <ele>208.26</ele>
        <time>2018-03-12T11:15:40Z</time>
      </trkpt>
      <trkpt lat="43.93293" lon="5.10849">
        <ele>208.26</ele>
        <time>2018-03-12T11:16:12Z</time>
      </trkpt>
      <trkpt lat="43.93293" lon="5.1085">
        <ele>208.74</ele>
        <time>2018-03-12T11:16:41Z</time>
      </trkpt>
      <trkpt lat="43.93292" lon="5.10851">
        <ele>208.74</ele>
        <time>2018-03-12T11:17:10Z</time>
      </trkpt>
      <trkpt lat="43.93292" lon="5.10851">
        <ele>209.22</ele>
        <time>2018-03-12T11:17:36Z</time>
      </trkpt>
      <trkpt lat="43.93292" lon="5.10851">
        <ele>209.22</ele>
        <time>2018-03-12T11:18:05Z</time>
      </trkpt>
      <trkpt lat="43.93291" lon="5.10852">
        <ele>209.22</ele>
        <time>2018-03-12T11:18:29Z</time>
      </trkpt>
      <trkpt lat="43.9329" lon="5.10854">
        <ele>209.22</ele>
        <time>2018-03-12T11:18:59Z</time>
      </trkpt>
      <trkpt lat="43.93292" lon="5.10853">
        <ele>209.7</ele>
        <time>2018-03-12T11:19:30Z</time>
      </trkpt>
      <trkpt lat="43.93293" lon="5.10852">
        <ele>209.7</ele>
        <time>2018-03-12T11:19:52Z</time>
      </trkpt>
      <trkpt lat="43.93291" lon="5.10852">
        <ele>209.7</ele>
        <time>2018-03-12T11:20:22Z</time>
      </trkpt>
      <trkpt lat="43.93291" lon="5.10852">
        <ele>209.7</ele>
        <time>2018-03-12T11:20:52Z</time>
      </trkpt>
      <trkpt lat="43.93291" lon="5.10853">
        <ele>209.7</ele>
        <time>2018-03-12T11:21:10Z</time>
      </trkpt>
      <trkpt lat="43.93291" lon="5.10853">
        <ele>210.19</ele>
        <time>2018-03-12T11:21:34Z</time>
      </trkpt>
      <trkpt lat="43.93291" lon="5.10853">
        <ele>210.19</ele>
        <time>2018-03-12T11:22:03Z</time>
      </trkpt>
      <trkpt lat="43.9329" lon="5.10854">
        <ele>210.19</ele>
        <time>2018-03-12T11:22:29Z</time>
      </trkpt>
      <trkpt lat="43.93289" lon="5.10854">
        <ele>210.19</ele>
        <time>2018-03-12T11:22:49Z</time>
      </trkpt>
      <trkpt lat="43.93289" lon="5.10852">
        <ele>210.19</ele>
        <time>2018-03-12T11:23:09Z</time>
      </trkpt>
      <trkpt lat="43.93293" lon="5.10853">
        <ele>210.19</ele>
        <time>2018-03-12T11:23:35Z</time>
      </trkpt>
      <trkpt lat="43.93292" lon="5.10853">
        <ele>210.67</ele>
        <time>2018-03-12T11:24:03Z</time>
      </trkpt>
      <trkpt lat="43.93293" lon="5.10851">
        <ele>210.19</ele>
        <time>2018-03-12T11:24:31Z</time>
      </trkpt>
      <trkpt lat="43.93292" lon="5.10852">
        <ele>210.19</ele>
        <time>2018-03-12T11:25:02Z</time>
      </trkpt>
      <trkpt lat="43.93293" lon="5.10853">
        <ele>210.19</ele>
        <time>2018-03-12T11:25:23Z</time>
      </trkpt>
      <trkpt lat="43.93295" lon="5.10852">
        <ele>210.67</ele>
        <time>2018-03-12T11:25:44Z</time>
      </trkpt>
      <trkpt lat="43.93295" lon="5.10851">
        <ele>210.67</ele>
        <time>2018-03-12T11:26:10Z</time>
      </trkpt>
      <trkpt lat="43.93293" lon="5.10853">
        <ele>210.67</ele>
        <time>2018-03-12T11:26:37Z</time>
      </trkpt>
      <trkpt lat="43.93294" lon="5.10852">
        <ele>210.67</ele>
        <time>2018-03-12T11:26:57Z</time>
      </trkpt>
      <trkpt lat="43.93293" lon="5.10857">
        <ele>210.67</ele>
        <time>2018-03-12T11:27:29Z</time>
      </trkpt>
      <trkpt lat="43.93291" lon="5.10857">
        <ele>210.67</ele>
        <time>2018-03-12T11:27:53Z</time>
      </trkpt>
      <trkpt lat="43.9329" lon="5.10855">
        <ele>210.67</ele>
        <time>2018-03-12T11:28:16Z</time>
      </trkpt>
      <trkpt lat="43.93292" lon="5.1085">
        <ele>210.67</ele>
        <time>2018-03-12T11:28:59Z</time>
      </trkpt>
      <trkpt lat="43.93295" lon="5.10849">
        <ele>210.67</ele>
        <time>2018-03-12T11:29:36Z</time>
      </trkpt>
      <trkpt lat="43.93297" lon="5.10849">
        <ele>210.67</ele>
        <time>2018-03-12T11:29:57Z</time>
      </trkpt>
      <trkpt lat="43.93295" lon="5.10851">
        <ele>211.15</ele>
        <time>2018-03-12T11:30:20Z</time>
      </trkpt>
      <trkpt lat="43.93294" lon="5.1085">
        <ele>211.15</ele>
        <time>2018-03-12T11:30:52Z</time>
      </trkpt>
      <trkpt lat="43.93295" lon="5.10849">
        <ele>211.15</ele>
        <time>2018-03-12T11:31:28Z</time>
      </trkpt>
      <trkpt lat="43.93294" lon="5.10849">
        <ele>211.15</ele>
        <time>2018-03-12T11:31:59Z</time>
      </trkpt>
      <trkpt lat="43.93293" lon="5.1085">
        <ele>211.63</ele>
        <time>2018-03-12T11:32:20Z</time>
      </trkpt>
      <trkpt lat="43.93292" lon="5.10851">
        <ele>211.63</ele>
        <time>2018-03-12T11:32:54Z</time>
      </trkpt>
      <trkpt lat="43.93292" lon="5.10847">
        <ele>211.63</ele>
        <time>2018-03-12T11:33:23Z</time>
      </trkpt>
      <trkpt lat="43.93292" lon="5.10847">
        <ele>211.63</ele>
        <time>2018-03-12T11:33:54Z</time>
      </trkpt>
      <trkpt lat="43.93292" lon="5.10849">
        <ele>212.11</ele>
        <time>2018-03-12T11:34:31Z</time>
      </trkpt>
      <trkpt lat="43.93293" lon="5.10849">
        <ele>212.11</ele>
        <time>2018-03-12T11:35:03Z</time>
      </trkpt>
      <trkpt lat="43.93293" lon="5.1085">
        <ele>212.11</ele>
        <time>2018-03-12T11:35:31Z</time>
      </trkpt>
      <trkpt lat="43.93294" lon="5.10851">
        <ele>212.11</ele>
        <time>2018-03-12T11:36:04Z</time>
      </trkpt>
      <trkpt lat="43.93295" lon="5.10849">
        <ele>212.11</ele>
        <time>2018-03-12T11:36:38Z</time>
      </trkpt>
      <trkpt lat="43.93294" lon="5.10849">
        <ele>212.11</ele>
        <time>2018-03-12T11:37:10Z</time>
      </trkpt>
      <trkpt lat="43.93297" lon="5.10848">
        <ele>212.11</ele>
        <time>2018-03-12T11:37:37Z</time>
      </trkpt>
      <trkpt lat="43.93295" lon="5.10849">
        <ele>212.11</ele>
        <time>2018-03-12T11:38:11Z</time>
      </trkpt>
      <trkpt lat="43.93294" lon="5.1085">
        <ele>212.59</ele>
        <time>2018-03-12T11:38:39Z</time>
      </trkpt>
      <trkpt lat="43.93296" lon="5.10847">
        <ele>212.59</ele>
        <time>2018-03-12T11:39:10Z</time>
      </trkpt>
      <trkpt lat="43.93293" lon="5.10851">
        <ele>212.59</ele>
        <time>2018-03-12T11:39:38Z</time>
      </trkpt>
      <trkpt lat="43.93294" lon="5.10849">
        <ele>212.59</ele>
        <time>2018-03-12T11:40:05Z</time>
      </trkpt>
      <trkpt lat="43.93295" lon="5.10847">
        <ele>213.07</ele>
        <time>2018-03-12T11:40:29Z</time>
      </trkpt>
      <trkpt lat="43.93295" lon="5.10849">
        <ele>213.07</ele>
        <time>2018-03-12T11:40:59Z</time>
      </trkpt>
      <trkpt lat="43.93294" lon="5.1085">
        <ele>213.07</ele>
        <time>2018-03-12T11:41:21Z</time>
      </trkpt>
      <trkpt lat="43.93297" lon="5.10854">
        <ele>213.07</ele>
        <time>2018-03-12T11:41:53Z</time>
      </trkpt>
      <trkpt lat="43.93296" lon="5.10853">
        <ele>213.07</ele>
        <time>2018-03-12T11:42:24Z</time>
      </trkpt>
      <trkpt lat="43.93296" lon="5.10851">
        <ele>213.07</ele>
        <time>2018-03-12T11:43:00Z</time>
      </trkpt>
      <trkpt lat="43.93297" lon="5.10851">
        <ele>213.07</ele>
        <time>2018-03-12T11:43:26Z</time>
      </trkpt>
      <trkpt lat="43.93293" lon="5.10854">
        <ele>214.03</ele>
        <time>2018-03-12T11:43:42Z</time>
      </trkpt>
      <trkpt lat="43.93291" lon="5.10853">
        <ele>214.03</ele>
        <time>2018-03-12T11:44:08Z</time>
      </trkpt>
      <trkpt lat="43.9329" lon="5.10854">
        <ele>214.51</ele>
        <time>2018-03-12T11:44:34Z</time>
      </trkpt>
      <trkpt lat="43.93286" lon="5.10852">
        <ele>214.51</ele>
        <time>2018-03-12T11:45:01Z</time>
      </trkpt>
      <trkpt lat="43.93288" lon="5.10857">
        <ele>214.99</ele>
        <time>2018-03-12T11:45:24Z</time>
      </trkpt>
      <trkpt lat="43.93288" lon="5.10858">
        <ele>214.99</ele>
        <time>2018-03-12T11:45:50Z</time>
      </trkpt>
      <trkpt lat="43.93288" lon="5.10856">
        <ele>214.99</ele>
        <time>2018-03-12T11:46:11Z</time>
      </trkpt>
      <trkpt lat="43.93289" lon="5.10856">
        <ele>216.43</ele>
        <time>2018-03-12T11:46:18Z</time>
      </trkpt>
      <trkpt lat="43.9329" lon="5.10857">
        <ele>214.99</ele>
        <time>2018-03-12T11:46:21Z</time>
      </trkpt>
      <trkpt lat="43.9329" lon="5.10857">
        <ele>214.51</ele>
        <time>2018-03-12T11:46:39Z</time>
      </trkpt>
      <trkpt lat="43.93288" lon="5.10856">
        <ele>215.95</ele>
        <time>2018-03-12T11:47:05Z</time>
      </trkpt>
      <trkpt lat="43.93289" lon="5.10856">
        <ele>212.59</ele>
        <time>2018-03-12T11:47:06Z</time>
      </trkpt>
      <trkpt lat="43.93289" lon="5.10856">
        <ele>217.4</ele>
        <time>2018-03-12T11:47:08Z</time>
      </trkpt>
      <trkpt lat="43.93289" lon="5.10855">
        <ele>214.03</ele>
        <time>2018-03-12T11:47:09Z</time>
      </trkpt>
      <trkpt lat="43.93288" lon="5.10854">
        <ele>215.95</ele>
        <time>2018-03-12T11:47:12Z</time>
      </trkpt>
      <trkpt lat="43.93289" lon="5.10855">
        <ele>212.11</ele>
        <time>2018-03-12T11:47:18Z</time>
      </trkpt>
      <trkpt lat="43.9329" lon="5.10854">
        <ele>215.47</ele>
        <time>2018-03-12T11:47:20Z</time>
      </trkpt>
      <trkpt lat="43.9329" lon="5.10854">
        <ele>215.47</ele>
        <time>2018-03-12T11:47:21Z</time>
      </trkpt>
      <trkpt lat="43.9329" lon="5.10855">
        <ele>214.99</ele>
        <time>2018-03-12T11:47:45Z</time>
      </trkpt>
      <trkpt lat="43.93287" lon="5.10857">
        <ele>214.99</ele>
        <time>2018-03-12T11:48:21Z</time>
      </trkpt>
      <trkpt lat="43.93288" lon="5.10856">
        <ele>214.99</ele>
        <time>2018-03-12T11:48:28Z</time>
      </trkpt>
      <trkpt lat="43.93287" lon="5.10858">
        <ele>220.28</ele>
        <time>2018-03-12T11:48:30Z</time>
      </trkpt>
      <trkpt lat="43.93287" lon="5.10857">
        <ele>216.91</ele>
        <time>2018-03-12T11:48:31Z</time>
      </trkpt>
      <trkpt lat="43.93287" lon="5.10857">
        <ele>213.07</ele>
        <time>2018-03-12T11:48:32Z</time>
      </trkpt>
      <trkpt lat="43.93287" lon="5.10858">
        <ele>214.99</ele>
        <time>2018-03-12T11:48:33Z</time>
      </trkpt>
      <trkpt lat="43.93287" lon="5.10858">
        <ele>212.11</ele>
        <time>2018-03-12T11:48:35Z</time>
      </trkpt>
      <trkpt lat="43.93288" lon="5.10857">
        <ele>215.47</ele>
        <time>2018-03-12T11:48:36Z</time>
      </trkpt>
      <trkpt lat="43.93289" lon="5.10857">
        <ele>209.22</ele>
        <time>2018-03-12T11:48:42Z</time>
      </trkpt>
      <trkpt lat="43.9329" lon="5.10857">
        <ele>220.76</ele>
        <time>2018-03-12T11:48:43Z</time>
      </trkpt>
      <trkpt lat="43.9329" lon="5.10856">
        <ele>216.43</ele>
        <time>2018-03-12T11:48:44Z</time>
      </trkpt>
      <trkpt lat="43.9329" lon="5.10856">
        <ele>215.47</ele>
        <time>2018-03-12T11:48:46Z</time>
      </trkpt>
      <trkpt lat="43.93289" lon="5.10854">
        <ele>215.47</ele>
        <time>2018-03-12T11:48:59Z</time>
      </trkpt>
      <trkpt lat="43.9329" lon="5.10856">
        <ele>212.11</ele>
        <time>2018-03-12T11:49:07Z</time>
      </trkpt>
      <trkpt lat="43.9329" lon="5.10856">
        <ele>219.8</ele>
        <time>2018-03-12T11:49:08Z</time>
      </trkpt>
      <trkpt lat="43.9329" lon="5.10856">
        <ele>215.47</ele>
        <time>2018-03-12T11:49:09Z</time>
      </trkpt>
      <trkpt lat="43.9329" lon="5.10855">
        <ele>208.74</ele>
        <time>2018-03-12T11:49:12Z</time>
      </trkpt>
      <trkpt lat="43.93292" lon="5.10854">
        <ele>215.47</ele>
        <time>2018-03-12T11:49:14Z</time>
      </trkpt>
      <trkpt lat="43.9329" lon="5.10855">
        <ele>215.47</ele>
        <time>2018-03-12T11:49:36Z</time>
      </trkpt>
      <trkpt lat="43.93289" lon="5.10855">
        <ele>216.91</ele>
        <time>2018-03-12T11:49:45Z</time>
      </trkpt>
      <trkpt lat="43.93289" lon="5.10854">
        <ele>215.47</ele>
        <time>2018-03-12T11:49:47Z</time>
      </trkpt>
      <trkpt lat="43.93289" lon="5.10854">
        <ele>210.67</ele>
        <time>2018-03-12T11:49:48Z</time>
      </trkpt>
      <trkpt lat="43.93289" lon="5.10855">
        <ele>214.51</ele>
        <time>2018-03-12T11:49:49Z</time>
      </trkpt>
      <trkpt lat="43.9329" lon="5.10855">
        <ele>218.84</ele>
        <time>2018-03-12T11:49:51Z</time>
      </trkpt>
      <trkpt lat="43.9329" lon="5.10855">
        <ele>211.15</ele>
        <time>2018-03-12T11:49:52Z</time>
      </trkpt>
      <trkpt lat="43.93291" lon="5.10856">
        <ele>219.32</ele>
        <time>2018-03-12T11:49:54Z</time>
      </trkpt>
      <trkpt lat="43.93291" lon="5.10856">
        <ele>215.47</ele>
        <time>2018-03-12T11:49:55Z</time>
      </trkpt>
      <trkpt lat="43.93292" lon="5.10853">
        <ele>214.99</ele>
        <time>2018-03-12T11:50:14Z</time>
      </trkpt>
      <trkpt lat="43.93291" lon="5.10853">
        <ele>214.99</ele>
        <time>2018-03-12T11:50:43Z</time>
      </trkpt>
      <trkpt lat="43.9329" lon="5.10857">
        <ele>214.99</ele>
        <time>2018-03-12T11:51:07Z</time>
      </trkpt>
      <trkpt lat="43.93289" lon="5.10858">
        <ele>219.32</ele>
        <time>2018-03-12T11:51:16Z</time>
      </trkpt>
      <trkpt lat="43.93289" lon="5.10858">
        <ele>215.47</ele>
        <time>2018-03-12T11:51:17Z</time>
      </trkpt>
      <trkpt lat="43.93288" lon="5.10858">
        <ele>214.99</ele>
        <time>2018-03-12T11:51:22Z</time>
      </trkpt>
      <trkpt lat="43.93289" lon="5.10859">
        <ele>209.22</ele>
        <time>2018-03-12T11:51:24Z</time>
      </trkpt>
      <trkpt lat="43.9329" lon="5.10856">
        <ele>215.47</ele>
        <time>2018-03-12T11:51:26Z</time>
      </trkpt>
      <trkpt lat="43.93289" lon="5.10858">
        <ele>209.22</ele>
        <time>2018-03-12T11:51:27Z</time>
      </trkpt>
      <trkpt lat="43.93289" lon="5.10859">
        <ele>216.91</ele>
        <time>2018-03-12T11:51:28Z</time>
      </trkpt>
      <trkpt lat="43.93289" lon="5.10859">
        <ele>219.8</ele>
        <time>2018-03-12T11:51:29Z</time>
      </trkpt>
      <trkpt lat="43.93289" lon="5.1086">
        <ele>210.67</ele>
        <time>2018-03-12T11:51:30Z</time>
      </trkpt>
      <trkpt lat="43.93289" lon="5.1086">
        <ele>220.28</ele>
        <time>2018-03-12T11:51:31Z</time>
      </trkpt>
      <trkpt lat="43.93288" lon="5.1086">
        <ele>215.47</ele>
        <time>2018-03-12T11:51:32Z</time>
      </trkpt>
      <trkpt lat="43.93288" lon="5.10861">
        <ele>210.19</ele>
        <time>2018-03-12T11:51:35Z</time>
      </trkpt>
      <trkpt lat="43.93289" lon="5.10862">
        <ele>219.8</ele>
        <time>2018-03-12T11:51:36Z</time>
      </trkpt>
      <trkpt lat="43.93289" lon="5.10861">
        <ele>215.47</ele>
        <time>2018-03-12T11:51:37Z</time>
      </trkpt>
      <trkpt lat="43.93289" lon="5.10861">
        <ele>212.11</ele>
        <time>2018-03-12T11:51:41Z</time>
      </trkpt>
      <trkpt lat="43.93289" lon="5.10861">
        <ele>216.91</ele>
        <time>2018-03-12T11:51:42Z</time>
      </trkpt>
      <trkpt lat="43.93289" lon="5.10861">
        <ele>216.91</ele>
        <time>2018-03-12T11:51:43Z</time>
      </trkpt>
      <trkpt lat="43.93289" lon="5.10862">
        <ele>215.47</ele>
        <time>2018-03-12T11:51:45Z</time>
      </trkpt>
      <trkpt lat="43.9329" lon="5.1086">
        <ele>215.47</ele>
        <time>2018-03-12T11:51:57Z</time>
      </trkpt>
      <trkpt lat="43.93292" lon="5.10858">
        <ele>215.47</ele>
        <time>2018-03-12T11:52:16Z</time>
      </trkpt>
      <trkpt lat="43.93291" lon="5.10852">
        <ele>215.47</ele>
        <time>2018-03-12T11:52:35Z</time>
      </trkpt>
      <trkpt lat="43.93287" lon="5.10853">
        <ele>215.47</ele>
        <time>2018-03-12T11:52:58Z</time>
      </trkpt>
      <trkpt lat="43.93289" lon="5.10858">
        <ele>215.47</ele>
        <time>2018-03-12T11:53:18Z</time>
      </trkpt>
      <trkpt lat="43.93289" lon="5.1086">
        <ele>216.91</ele>
        <time>2018-03-12T11:53:29Z</time>
      </trkpt>
      <trkpt lat="43.93291" lon="5.10856">
        <ele>216.91</ele>
        <time>2018-03-12T11:53:49Z</time>
      </trkpt>
      <trkpt lat="43.93295" lon="5.10847">
        <ele>216.43</ele>
        <time>2018-03-12T11:54:10Z</time>
      </trkpt>
      <trkpt lat="43.93297" lon="5.10852">
        <ele>215.95</ele>
        <time>2018-03-12T11:54:19Z</time>
      </trkpt>
      <trkpt lat="43.93297" lon="5.10853">
        <ele>220.28</ele>
        <time>2018-03-12T11:54:22Z</time>
      </trkpt>
      <trkpt lat="43.93297" lon="5.10851">
        <ele>216.91</ele>
        <time>2018-03-12T11:54:23Z</time>
      </trkpt>
      <trkpt lat="43.93294" lon="5.10847">
        <ele>218.84</ele>
        <time>2018-03-12T11:54:52Z</time>
      </trkpt>
      <trkpt lat="43.93299" lon="5.10853">
        <ele>217.4</ele>
        <time>2018-03-12T11:55:10Z</time>
      </trkpt>
      <trkpt lat="43.93297" lon="5.10852">
        <ele>216.43</ele>
        <time>2018-03-12T11:55:35Z</time>
      </trkpt>
      <trkpt lat="43.93294" lon="5.10853">
        <ele>217.4</ele>
        <time>2018-03-12T11:55:57Z</time>
      </trkpt>
      <trkpt lat="43.93294" lon="5.10854">
        <ele>217.4</ele>
        <time>2018-03-12T11:56:16Z</time>
      </trkpt>
      <trkpt lat="43.9329" lon="5.10855">
        <ele>217.88</ele>
        <time>2018-03-12T11:56:41Z</time>
      </trkpt>
      <trkpt lat="43.93284" lon="5.1086">
        <ele>217.4</ele>
        <time>2018-03-12T11:56:54Z</time>
      </trkpt>
      <trkpt lat="43.93276" lon="5.10858">
        <ele>216.91</ele>
        <time>2018-03-12T11:57:10Z</time>
      </trkpt>
      <trkpt lat="43.93267" lon="5.10855">
        <ele>215.95</ele>
        <time>2018-03-12T11:57:27Z</time>
      </trkpt>
      <trkpt lat="43.93258" lon="5.10851">
        <ele>214.99</ele>
        <time>2018-03-12T11:57:42Z</time>
      </trkpt>
      <trkpt lat="43.93246" lon="5.10846">
        <ele>213.55</ele>
        <time>2018-03-12T11:57:59Z</time>
      </trkpt>
      <trkpt lat="43.93234" lon="5.10844">
        <ele>212.59</ele>
        <time>2018-03-12T11:58:18Z</time>
      </trkpt>
      <trkpt lat="43.93222" lon="5.10841">
        <ele>211.63</ele>
        <time>2018-03-12T11:58:35Z</time>
      </trkpt>
      <trkpt lat="43.93211" lon="5.1084">
        <ele>210.19</ele>
        <time>2018-03-12T11:58:51Z</time>
      </trkpt>
      <trkpt lat="43.93196" lon="5.10844">
        <ele>208.26</ele>
        <time>2018-03-12T11:59:08Z</time>
      </trkpt>
      <trkpt lat="43.93184" lon="5.10846">
        <ele>206.82</ele>
        <time>2018-03-12T11:59:24Z</time>
      </trkpt>
      <trkpt lat="43.93174" lon="5.10844">
        <ele>205.86</ele>
        <time>2018-03-12T11:59:38Z</time>
      </trkpt>
      <trkpt lat="43.93162" lon="5.10844">
        <ele>204.42</ele>
        <time>2018-03-12T11:59:53Z</time>
      </trkpt>
      <trkpt lat="43.93153" lon="5.10843">
        <ele>202.49</ele>
        <time>2018-03-12T12:00:06Z</time>
      </trkpt>
      <trkpt lat="43.9314" lon="5.1084">
        <ele>201.53</ele>
        <time>2018-03-12T12:00:21Z</time>
      </trkpt>
      <trkpt lat="43.9313" lon="5.10834">
        <ele>200.57</ele>
        <time>2018-03-12T12:00:37Z</time>
      </trkpt>
      <trkpt lat="43.93121" lon="5.10827">
        <ele>198.65</ele>
        <time>2018-03-12T12:00:53Z</time>
      </trkpt>
      <trkpt lat="43.93106" lon="5.10821">
        <ele>196.73</ele>
        <time>2018-03-12T12:01:12Z</time>
      </trkpt>
      <trkpt lat="43.93095" lon="5.10813">
        <ele>194.8</ele>
        <time>2018-03-12T12:01:31Z</time>
      </trkpt>
      <trkpt lat="43.93082" lon="5.10806">
        <ele>193.36</ele>
        <time>2018-03-12T12:01:49Z</time>
      </trkpt>
      <trkpt lat="43.93072" lon="5.108">
        <ele>191.92</ele>
        <time>2018-03-12T12:02:06Z</time>
      </trkpt>
      <trkpt lat="43.93059" lon="5.10791">
        <ele>190.48</ele>
        <time>2018-03-12T12:02:23Z</time>
      </trkpt>
      <trkpt lat="43.93045" lon="5.10784">
        <ele>189.04</ele>
        <time>2018-03-12T12:02:40Z</time>
      </trkpt>
      <trkpt lat="43.93033" lon="5.10777">
        <ele>187.11</ele>
        <time>2018-03-12T12:02:56Z</time>
      </trkpt>
      <trkpt lat="43.9302" lon="5.10772">
        <ele>185.19</ele>
        <time>2018-03-12T12:03:11Z</time>
      </trkpt>
      <trkpt lat="43.92999" lon="5.10767">
        <ele>183.75</ele>
        <time>2018-03-12T12:03:32Z</time>
      </trkpt>
      <trkpt lat="43.92983" lon="5.10766">
        <ele>181.83</ele>
        <time>2018-03-12T12:03:50Z</time>
      </trkpt>
      <trkpt lat="43.9298" lon="5.10767">
        <ele>181.35</ele>
        <time>2018-03-12T12:03:54Z</time>
      </trkpt>
      <trkpt lat="43.92965" lon="5.10762">
        <ele>180.38</ele>
        <time>2018-03-12T12:04:10Z</time>
      </trkpt>
      <trkpt lat="43.92951" lon="5.1076">
        <ele>178.94</ele>
        <time>2018-03-12T12:04:26Z</time>
      </trkpt>
      <trkpt lat="43.92935" lon="5.10759">
        <ele>177.5</ele>
        <time>2018-03-12T12:04:44Z</time>
      </trkpt>
      <trkpt lat="43.92924" lon="5.10752">
        <ele>176.06</ele>
        <time>2018-03-12T12:05:01Z</time>
      </trkpt>
      <trkpt lat="43.92913" lon="5.10746">
        <ele>174.62</ele>
        <time>2018-03-12T12:05:18Z</time>
      </trkpt>
      <trkpt lat="43.92903" lon="5.10742">
        <ele>173.66</ele>
        <time>2018-03-12T12:05:35Z</time>
      </trkpt>
      <trkpt lat="43.9289" lon="5.1074">
        <ele>172.21</ele>
        <time>2018-03-12T12:05:52Z</time>
      </trkpt>
      <trkpt lat="43.92877" lon="5.10735">
        <ele>170.29</ele>
        <time>2018-03-12T12:06:08Z</time>
      </trkpt>
      <trkpt lat="43.92864" lon="5.10727">
        <ele>168.85</ele>
        <time>2018-03-12T12:06:26Z</time>
      </trkpt>
      <trkpt lat="43.92851" lon="5.10723">
        <ele>167.89</ele>
        <time>2018-03-12T12:06:41Z</time>
      </trkpt>
      <trkpt lat="43.92838" lon="5.10719">
        <ele>166.45</ele>
        <time>2018-03-12T12:06:56Z</time>
      </trkpt>
      <trkpt lat="43.92825" lon="5.10715">
        <ele>165.48</ele>
        <time>2018-03-12T12:07:12Z</time>
      </trkpt>
      <trkpt lat="43.92812" lon="5.10713">
        <ele>164.04</ele>
        <time>2018-03-12T12:07:27Z</time>
      </trkpt>
      <trkpt lat="43.92796" lon="5.10708">
        <ele>161.64</ele>
        <time>2018-03-12T12:07:46Z</time>
      </trkpt>
      <trkpt lat="43.92782" lon="5.10699">
        <ele>160.2</ele>
        <time>2018-03-12T12:08:05Z</time>
      </trkpt>
      <trkpt lat="43.92773" lon="5.10689">
        <ele>158.75</ele>
        <time>2018-03-12T12:08:20Z</time>
      </trkpt>
      <trkpt lat="43.92765" lon="5.10678">
        <ele>157.31</ele>
        <time>2018-03-12T12:08:35Z</time>
      </trkpt>
      <trkpt lat="43.92757" lon="5.10665">
        <ele>154.91</ele>
        <time>2018-03-12T12:08:50Z</time>
      </trkpt>
      <trkpt lat="43.92745" lon="5.10649">
        <ele>152.03</ele>
        <time>2018-03-12T12:09:09Z</time>
      </trkpt>
      <trkpt lat="43.92733" lon="5.10639">
        <ele>149.62</ele>
        <time>2018-03-12T12:09:27Z</time>
      </trkpt>
      <trkpt lat="43.92717" lon="5.10631">
        <ele>147.7</ele>
        <time>2018-03-12T12:09:45Z</time>
      </trkpt>
      <trkpt lat="43.92697" lon="5.10627">
        <ele>145.3</ele>
        <time>2018-03-12T12:10:05Z</time>
      </trkpt>
      <trkpt lat="43.92685" lon="5.10627">
        <ele>143.37</ele>
        <time>2018-03-12T12:10:20Z</time>
      </trkpt>
      <trkpt lat="43.9267" lon="5.10627">
        <ele>141.93</ele>
        <time>2018-03-12T12:10:37Z</time>
      </trkpt>
      <trkpt lat="43.92657" lon="5.10628">
        <ele>140.49</ele>
        <time>2018-03-12T12:10:53Z</time>
      </trkpt>
      <trkpt lat="43.92646" lon="5.10625">
        <ele>138.57</ele>
        <time>2018-03-12T12:11:09Z</time>
      </trkpt>
      <trkpt lat="43.92634" lon="5.10619">
        <ele>136.64</ele>
        <time>2018-03-12T12:11:27Z</time>
      </trkpt>
      <trkpt lat="43.92622" lon="5.10611">
        <ele>134.24</ele>
        <time>2018-03-12T12:11:44Z</time>
      </trkpt>
      <trkpt lat="43.9261" lon="5.10601">
        <ele>130.88</ele>
        <time>2018-03-12T12:12:01Z</time>
      </trkpt>
      <trkpt lat="43.92598" lon="5.1059">
        <ele>128.47</ele>
        <time>2018-03-12T12:12:21Z</time>
      </trkpt>
      <trkpt lat="43.92587" lon="5.10582">
        <ele>125.59</ele>
        <time>2018-03-12T12:12:37Z</time>
      </trkpt>
      <trkpt lat="43.92575" lon="5.1057">
        <ele>123.19</ele>
        <time>2018-03-12T12:12:58Z</time>
      </trkpt>
      <trkpt lat="43.92566" lon="5.10558">
        <ele>120.3</ele>
        <time>2018-03-12T12:13:18Z</time>
      </trkpt>
      <trkpt lat="43.92557" lon="5.10551">
        <ele>117.9</ele>
        <time>2018-03-12T12:13:34Z</time>
      </trkpt>
      <trkpt lat="43.92549" lon="5.10539">
        <ele>116.46</ele>
        <time>2018-03-12T12:13:51Z</time>
      </trkpt>
      <trkpt lat="43.92539" lon="5.10531">
        <ele>116.46</ele>
        <time>2018-03-12T12:14:05Z</time>
      </trkpt>
      <trkpt lat="43.92524" lon="5.10524">
        <ele>116.46</ele>
        <time>2018-03-12T12:14:26Z</time>
      </trkpt>
      <trkpt lat="43.92522" lon="5.1053">
        <ele>117.9</ele>
        <time>2018-03-12T12:14:32Z</time>
      </trkpt>
      <trkpt lat="43.92526" lon="5.10547">
        <ele>118.38</ele>
        <time>2018-03-12T12:14:49Z</time>
      </trkpt>
      <trkpt lat="43.92532" lon="5.10572">
        <ele>120.78</ele>
        <time>2018-03-12T12:15:10Z</time>
      </trkpt>
      <trkpt lat="43.92536" lon="5.10583">
        <ele>122.22</ele>
        <time>2018-03-12T12:15:28Z</time>
      </trkpt>
      <trkpt lat="43.92542" lon="5.10599">
        <ele>124.63</ele>
        <time>2018-03-12T12:15:46Z</time>
      </trkpt>
      <trkpt lat="43.92552" lon="5.10616">
        <ele>127.51</ele>
        <time>2018-03-12T12:16:05Z</time>
      </trkpt>
      <trkpt lat="43.92559" lon="5.10633">
        <ele>129.92</ele>
        <time>2018-03-12T12:16:23Z</time>
      </trkpt>
      <trkpt lat="43.9255" lon="5.10646">
        <ele>131.36</ele>
        <time>2018-03-12T12:16:39Z</time>
      </trkpt>
      <trkpt lat="43.92531" lon="5.10659">
        <ele>131.36</ele>
        <time>2018-03-12T12:16:59Z</time>
      </trkpt>
      <trkpt lat="43.92524" lon="5.10675">
        <ele>132.32</ele>
        <time>2018-03-12T12:17:15Z</time>
      </trkpt>
      <trkpt lat="43.92515" lon="5.10696">
        <ele>132.32</ele>
        <time>2018-03-12T12:17:33Z</time>
      </trkpt>
      <trkpt lat="43.92499" lon="5.10718">
        <ele>132.8</ele>
        <time>2018-03-12T12:17:52Z</time>
      </trkpt>
      <trkpt lat="43.92488" lon="5.10739">
        <ele>132.8</ele>
        <time>2018-03-12T12:18:10Z</time>
      </trkpt>
      <trkpt lat="43.92478" lon="5.10761">
        <ele>133.76</ele>
        <time>2018-03-12T12:18:29Z</time>
      </trkpt>
      <trkpt lat="43.92468" lon="5.10791">
        <ele>133.76</ele>
        <time>2018-03-12T12:18:50Z</time>
      </trkpt>
      <trkpt lat="43.92468" lon="5.10788">
        <ele>133.76</ele>
        <time>2018-03-12T12:19:05Z</time>
      </trkpt>
      <trkpt lat="43.92467" lon="5.10788">
        <ele>133.76</ele>
        <time>2018-03-12T12:19:14Z</time>
      </trkpt>
      <trkpt lat="43.92466" lon="5.1079">
        <ele>135.68</ele>
        <time>2018-03-12T12:19:16Z</time>
      </trkpt>
      <trkpt lat="43.92463" lon="5.10816">
        <ele>133.76</ele>
        <time>2018-03-12T12:19:33Z</time>
      </trkpt>
      <trkpt lat="43.92461" lon="5.10846">
        <ele>133.76</ele>
        <time>2018-03-12T12:19:54Z</time>
      </trkpt>
      <trkpt lat="43.92465" lon="5.10874">
        <ele>133.76</ele>
        <time>2018-03-12T12:20:15Z</time>
      </trkpt>
      <trkpt lat="43.9247" lon="5.10899">
        <ele>133.76</ele>
        <time>2018-03-12T12:20:34Z</time>
      </trkpt>
      <trkpt lat="43.92474" lon="5.10929">
        <ele>134.72</ele>
        <time>2018-03-12T12:20:55Z</time>
      </trkpt>
      <trkpt lat="43.92471" lon="5.10951">
        <ele>136.16</ele>
        <time>2018-03-12T12:21:12Z</time>
      </trkpt>
      <trkpt lat="43.92467" lon="5.1097">
        <ele>136.64</ele>
        <time>2018-03-12T12:21:26Z</time>
      </trkpt>
      <trkpt lat="43.92465" lon="5.10998">
        <ele>139.05</ele>
        <time>2018-03-12T12:21:44Z</time>
      </trkpt>
      <trkpt lat="43.92464" lon="5.1102">
        <ele>140.97</ele>
        <time>2018-03-12T12:22:02Z</time>
      </trkpt>
      <trkpt lat="43.92462" lon="5.11026">
        <ele>140.97</ele>
        <time>2018-03-12T12:22:08Z</time>
      </trkpt>
      <trkpt lat="43.92454" lon="5.11045">
        <ele>141.45</ele>
        <time>2018-03-12T12:22:26Z</time>
      </trkpt>
      <trkpt lat="43.92452" lon="5.11065">
        <ele>142.41</ele>
        <time>2018-03-12T12:22:42Z</time>
      </trkpt>
      <trkpt lat="43.92449" lon="5.1109">
        <ele>142.89</ele>
        <time>2018-03-12T12:22:58Z</time>
      </trkpt>
      <trkpt lat="43.92443" lon="5.11109">
        <ele>143.37</ele>
        <time>2018-03-12T12:23:13Z</time>
      </trkpt>
      <trkpt lat="43.92441" lon="5.11125">
        <ele>144.34</ele>
        <time>2018-03-12T12:23:27Z</time>
      </trkpt>
      <trkpt lat="43.92434" lon="5.11146">
        <ele>144.34</ele>
        <time>2018-03-12T12:23:43Z</time>
      </trkpt>
      <trkpt lat="43.92424" lon="5.11165">
        <ele>144.34</ele>
        <time>2018-03-12T12:23:58Z</time>
      </trkpt>
      <trkpt lat="43.92417" lon="5.11178">
        <ele>142.89</ele>
        <time>2018-03-12T12:24:10Z</time>
      </trkpt>
      <trkpt lat="43.92415" lon="5.11196">
        <ele>142.89</ele>
        <time>2018-03-12T12:24:24Z</time>
      </trkpt>
      <trkpt lat="43.92413" lon="5.11216">
        <ele>142.89</ele>
        <time>2018-03-12T12:24:39Z</time>
      </trkpt>
      <trkpt lat="43.92412" lon="5.1124">
        <ele>140.97</ele>
        <time>2018-03-12T12:24:56Z</time>
      </trkpt>
      <trkpt lat="43.92412" lon="5.11241">
        <ele>143.85</ele>
        <time>2018-03-12T12:24:57Z</time>
      </trkpt>
      <trkpt lat="43.92413" lon="5.11243">
        <ele>142.89</ele>
        <time>2018-03-12T12:25:04Z</time>
      </trkpt>
      <trkpt lat="43.92412" lon="5.1124">
        <ele>142.89</ele>
        <time>2018-03-12T12:25:34Z</time>
      </trkpt>
      <trkpt lat="43.92413" lon="5.11239">
        <ele>143.37</ele>
        <time>2018-03-12T12:25:58Z</time>
      </trkpt>
      <trkpt lat="43.92406" lon="5.11245">
        <ele>142.89</ele>
        <time>2018-03-12T12:26:14Z</time>
      </trkpt>
      <trkpt lat="43.92395" lon="5.11253">
        <ele>141.93</ele>
        <time>2018-03-12T12:26:27Z</time>
      </trkpt>
      <trkpt lat="43.9238" lon="5.11251">
        <ele>140.49</ele>
        <time>2018-03-12T12:26:43Z</time>
      </trkpt>
      <trkpt lat="43.92374" lon="5.11251">
        <ele>140.01</ele>
        <time>2018-03-12T12:26:49Z</time>
      </trkpt>
      <trkpt lat="43.92369" lon="5.11255">
        <ele>139.05</ele>
        <time>2018-03-12T12:26:57Z</time>
      </trkpt>
      <trkpt lat="43.92355" lon="5.11261">
        <ele>137.61</ele>
        <time>2018-03-12T12:27:14Z</time>
      </trkpt>
      <trkpt lat="43.92354" lon="5.11261">
        <ele>137.61</ele>
        <time>2018-03-12T12:27:15Z</time>
      </trkpt>
      <trkpt lat="43.92341" lon="5.11265">
        <ele>136.16</ele>
        <time>2018-03-12T12:27:31Z</time>
      </trkpt>
      <trkpt lat="43.92329" lon="5.11273">
        <ele>134.72</ele>
        <time>2018-03-12T12:27:44Z</time>
      </trkpt>
      <trkpt lat="43.92311" lon="5.11277">
        <ele>132.8</ele>
        <time>2018-03-12T12:28:01Z</time>
      </trkpt>
      <trkpt lat="43.92297" lon="5.11282">
        <ele>131.84</ele>
        <time>2018-03-12T12:28:16Z</time>
      </trkpt>
      <trkpt lat="43.92284" lon="5.11288">
        <ele>130.88</ele>
        <time>2018-03-12T12:28:32Z</time>
      </trkpt>
      <trkpt lat="43.92275" lon="5.11292">
        <ele>129.92</ele>
        <time>2018-03-12T12:28:47Z</time>
      </trkpt>
      <trkpt lat="43.92268" lon="5.11291">
        <ele>129.43</ele>
        <time>2018-03-12T12:29:08Z</time>
      </trkpt>
      <trkpt lat="43.92265" lon="5.11291">
        <ele>128.95</ele>
        <time>2018-03-12T12:29:12Z</time>
      </trkpt>
      <trkpt lat="43.9225" lon="5.11296">
        <ele>127.99</ele>
        <time>2018-03-12T12:29:27Z</time>
      </trkpt>
      <trkpt lat="43.92238" lon="5.11294">
        <ele>127.03</ele>
        <time>2018-03-12T12:29:40Z</time>
      </trkpt>
      <trkpt lat="43.92225" lon="5.11294">
        <ele>126.07</ele>
        <time>2018-03-12T12:29:54Z</time>
      </trkpt>
      <trkpt lat="43.92213" lon="5.11296">
        <ele>125.11</ele>
        <time>2018-03-12T12:30:07Z</time>
      </trkpt>
      <trkpt lat="43.92199" lon="5.11298">
        <ele>124.15</ele>
        <time>2018-03-12T12:30:22Z</time>
      </trkpt>
      <trkpt lat="43.92182" lon="5.11306">
        <ele>123.67</ele>
        <time>2018-03-12T12:30:36Z</time>
      </trkpt>
      <trkpt lat="43.92171" lon="5.11303">
        <ele>122.71</ele>
        <time>2018-03-12T12:30:50Z</time>
      </trkpt>
      <trkpt lat="43.92153" lon="5.11299">
        <ele>122.22</ele>
        <time>2018-03-12T12:31:05Z</time>
      </trkpt>
      <trkpt lat="43.92134" lon="5.11304">
        <ele>122.22</ele>
        <time>2018-03-12T12:31:21Z</time>
      </trkpt>
      <trkpt lat="43.9212" lon="5.11301">
        <ele>122.22</ele>
        <time>2018-03-12T12:31:37Z</time>
      </trkpt>
      <trkpt lat="43.92108" lon="5.11302">
        <ele>123.19</ele>
        <time>2018-03-12T12:31:52Z</time>
      </trkpt>
      <trkpt lat="43.92105" lon="5.113">
        <ele>122.22</ele>
        <time>2018-03-12T12:32:05Z</time>
      </trkpt>
      <trkpt lat="43.92105" lon="5.1129">
        <ele>120.3</ele>
        <time>2018-03-12T12:32:18Z</time>
      </trkpt>
      <trkpt lat="43.92105" lon="5.11279">
        <ele>118.86</ele>
        <time>2018-03-12T12:32:30Z</time>
      </trkpt>
      <trkpt lat="43.92102" lon="5.11263">
        <ele>116.94</ele>
        <time>2018-03-12T12:32:46Z</time>
      </trkpt>
      <trkpt lat="43.92092" lon="5.11254">
        <ele>115.01</ele>
        <time>2018-03-12T12:33:02Z</time>
      </trkpt>
      <trkpt lat="43.92088" lon="5.11242">
        <ele>113.09</ele>
        <time>2018-03-12T12:33:17Z</time>
      </trkpt>
      <trkpt lat="43.92076" lon="5.11228">
        <ele>111.17</ele>
        <time>2018-03-12T12:33:33Z</time>
      </trkpt>
      <trkpt lat="43.92067" lon="5.11218">
        <ele>109.25</ele>
        <time>2018-03-12T12:33:47Z</time>
      </trkpt>
      <trkpt lat="43.92053" lon="5.11208">
        <ele>107.81</ele>
        <time>2018-03-12T12:34:03Z</time>
      </trkpt>
      <trkpt lat="43.92042" lon="5.11202">
        <ele>106.36</ele>
        <time>2018-03-12T12:34:16Z</time>
      </trkpt>
      <trkpt lat="43.92032" lon="5.11192">
        <ele>103.96</ele>
        <time>2018-03-12T12:34:32Z</time>
      </trkpt>
      <trkpt lat="43.9202" lon="5.11182">
        <ele>103</ele>
        <time>2018-03-12T12:34:46Z</time>
      </trkpt>
      <trkpt lat="43.9201" lon="5.11173">
        <ele>101.08</ele>
        <time>2018-03-12T12:35:00Z</time>
      </trkpt>
      <trkpt lat="43.92001" lon="5.11157">
        <ele>99.63</ele>
        <time>2018-03-12T12:35:14Z</time>
      </trkpt>
      <trkpt lat="43.91988" lon="5.11152">
        <ele>98.67</ele>
        <time>2018-03-12T12:35:27Z</time>
      </trkpt>
      <trkpt lat="43.91979" lon="5.11142">
        <ele>96.75</ele>
        <time>2018-03-12T12:35:42Z</time>
      </trkpt>
      <trkpt lat="43.91977" lon="5.1114">
        <ele>97.71</ele>
        <time>2018-03-12T12:35:48Z</time>
      </trkpt>
      <trkpt lat="43.91976" lon="5.11139">
        <ele>96.75</ele>
        <time>2018-03-12T12:36:07Z</time>
      </trkpt>
      <trkpt lat="43.91968" lon="5.11128">
        <ele>95.79</ele>
        <time>2018-03-12T12:36:21Z</time>
      </trkpt>
      <trkpt lat="43.91959" lon="5.11118">
        <ele>94.35</ele>
        <time>2018-03-12T12:36:36Z</time>
      </trkpt>
      <trkpt lat="43.91952" lon="5.11109">
        <ele>93.39</ele>
        <time>2018-03-12T12:36:48Z</time>
      </trkpt>
      <trkpt lat="43.91944" lon="5.11089">
        <ele>91.46</ele>
        <time>2018-03-12T12:37:07Z</time>
      </trkpt>
      <trkpt lat="43.91942" lon="5.11082">
        <ele>91.46</ele>
        <time>2018-03-12T12:37:12Z</time>
      </trkpt>
      <trkpt lat="43.91934" lon="5.11065">
        <ele>90.98</ele>
        <time>2018-03-12T12:37:28Z</time>
      </trkpt>
      <trkpt lat="43.9193" lon="5.11056">
        <ele>90.98</ele>
        <time>2018-03-12T12:37:52Z</time>
      </trkpt>
      <trkpt lat="43.9193" lon="5.11051">
        <ele>90.98</ele>
        <time>2018-03-12T12:38:20Z</time>
      </trkpt>
      <trkpt lat="43.91929" lon="5.11056">
        <ele>90.98</ele>
        <time>2018-03-12T12:38:33Z</time>
      </trkpt>
      <trkpt lat="43.91929" lon="5.11053">
        <ele>90.98</ele>
        <time>2018-03-12T12:39:00Z</time>
      </trkpt>
      <trkpt lat="43.91933" lon="5.1106">
        <ele>90.98</ele>
        <time>2018-03-12T12:39:23Z</time>
      </trkpt>
      <trkpt lat="43.91932" lon="5.11069">
        <ele>90.98</ele>
        <time>2018-03-12T12:39:50Z</time>
      </trkpt>
      <trkpt lat="43.91929" lon="5.11063">
        <ele>90.98</ele>
        <time>2018-03-12T12:40:06Z</time>
      </trkpt>
      <trkpt lat="43.91926" lon="5.11058">
        <ele>90.98</ele>
        <time>2018-03-12T12:40:22Z</time>
      </trkpt>
      <trkpt lat="43.91925" lon="5.11057">
        <ele>91.46</ele>
        <time>2018-03-12T12:40:46Z</time>
      </trkpt>
      <trkpt lat="43.9192" lon="5.11049">
        <ele>91.94</ele>
        <time>2018-03-12T12:41:02Z</time>
      </trkpt>
      <trkpt lat="43.91913" lon="5.11064">
        <ele>90.5</ele>
        <time>2018-03-12T12:41:16Z</time>
      </trkpt>
      <trkpt lat="43.91913" lon="5.11066">
        <ele>90.5</ele>
        <time>2018-03-12T12:41:23Z</time>
      </trkpt>
      <trkpt lat="43.91914" lon="5.11066">
        <ele>95.31</ele>
        <time>2018-03-12T12:41:25Z</time>
      </trkpt>
      <trkpt lat="43.91914" lon="5.11067">
        <ele>91.46</ele>
        <time>2018-03-12T12:41:26Z</time>
      </trkpt>
      <trkpt lat="43.91914" lon="5.11067">
        <ele>90.5</ele>
        <time>2018-03-12T12:41:28Z</time>
      </trkpt>
      <trkpt lat="43.91909" lon="5.11072">
        <ele>90.5</ele>
        <time>2018-03-12T12:41:50Z</time>
      </trkpt>
      <trkpt lat="43.91895" lon="5.11087">
        <ele>90.5</ele>
        <time>2018-03-12T12:42:08Z</time>
      </trkpt>
      <trkpt lat="43.91886" lon="5.11094">
        <ele>90.5</ele>
        <time>2018-03-12T12:42:23Z</time>
      </trkpt>
      <trkpt lat="43.91872" lon="5.11103">
        <ele>90.02</ele>
        <time>2018-03-12T12:42:40Z</time>
      </trkpt>
      <trkpt lat="43.91855" lon="5.11111">
        <ele>90.02</ele>
        <time>2018-03-12T12:42:58Z</time>
      </trkpt>
      <trkpt lat="43.91844" lon="5.11114">
        <ele>90.02</ele>
        <time>2018-03-12T12:43:13Z</time>
      </trkpt>
      <trkpt lat="43.91831" lon="5.11115">
        <ele>90.02</ele>
        <time>2018-03-12T12:43:35Z</time>
      </trkpt>
      <trkpt lat="43.9182" lon="5.11118">
        <ele>90.02</ele>
        <time>2018-03-12T12:43:46Z</time>
      </trkpt>
      <trkpt lat="43.91801" lon="5.11123">
        <ele>90.02</ele>
        <time>2018-03-12T12:44:04Z</time>
      </trkpt>
      <trkpt lat="43.91794" lon="5.11124">
        <ele>90.02</ele>
        <time>2018-03-12T12:44:11Z</time>
      </trkpt>
      <trkpt lat="43.91777" lon="5.11123">
        <ele>90.02</ele>
        <time>2018-03-12T12:44:26Z</time>
      </trkpt>
      <trkpt lat="43.91759" lon="5.11126">
        <ele>90.02</ele>
        <time>2018-03-12T12:44:41Z</time>
      </trkpt>
      <trkpt lat="43.91748" lon="5.11129">
        <ele>90.02</ele>
        <time>2018-03-12T12:44:51Z</time>
      </trkpt>
      <trkpt lat="43.91746" lon="5.11129">
        <ele>90.02</ele>
        <time>2018-03-12T12:44:53Z</time>
      </trkpt>
      <trkpt lat="43.91732" lon="5.11133">
        <ele>90.02</ele>
        <time>2018-03-12T12:45:08Z</time>
      </trkpt>
      <trkpt lat="43.91721" lon="5.11136">
        <ele>90.02</ele>
        <time>2018-03-12T12:45:24Z</time>
      </trkpt>
      <trkpt lat="43.91713" lon="5.11143">
        <ele>89.54</ele>
        <time>2018-03-12T12:45:49Z</time>
      </trkpt>
      <trkpt lat="43.91698" lon="5.11147">
        <ele>89.54</ele>
        <time>2018-03-12T12:46:05Z</time>
      </trkpt>
      <trkpt lat="43.91682" lon="5.11156">
        <ele>89.54</ele>
        <time>2018-03-12T12:46:21Z</time>
      </trkpt>
      <trkpt lat="43.91669" lon="5.11167">
        <ele>89.54</ele>
        <time>2018-03-12T12:46:36Z</time>
      </trkpt>
      <trkpt lat="43.91656" lon="5.11181">
        <ele>89.54</ele>
        <time>2018-03-12T12:46:52Z</time>
      </trkpt>
      <trkpt lat="43.9164" lon="5.11198">
        <ele>89.54</ele>
        <time>2018-03-12T12:47:12Z</time>
      </trkpt>
      <trkpt lat="43.91633" lon="5.11214">
        <ele>89.54</ele>
        <time>2018-03-12T12:47:29Z</time>
      </trkpt>
      <trkpt lat="43.91632" lon="5.11223">
        <ele>90.5</ele>
        <time>2018-03-12T12:47:50Z</time>
      </trkpt>
      <trkpt lat="43.91632" lon="5.1124">
        <ele>90.5</ele>
        <time>2018-03-12T12:48:05Z</time>
      </trkpt>
      <trkpt lat="43.91629" lon="5.11247">
        <ele>90.5</ele>
        <time>2018-03-12T12:48:23Z</time>
      </trkpt>
      <trkpt lat="43.91624" lon="5.11251">
        <ele>90.5</ele>
        <time>2018-03-12T12:48:43Z</time>
      </trkpt>
      <trkpt lat="43.91623" lon="5.11251">
        <ele>90.5</ele>
        <time>2018-03-12T12:49:04Z</time>
      </trkpt>
      <trkpt lat="43.91618" lon="5.11253">
        <ele>90.5</ele>
        <time>2018-03-12T12:49:18Z</time>
      </trkpt>
      <trkpt lat="43.91606" lon="5.11258">
        <ele>90.5</ele>
        <time>2018-03-12T12:49:33Z</time>
      </trkpt>
      <trkpt lat="43.91597" lon="5.11261">
        <ele>90.5</ele>
        <time>2018-03-12T12:49:48Z</time>
      </trkpt>
      <trkpt lat="43.91585" lon="5.11267">
        <ele>90.5</ele>
        <time>2018-03-12T12:50:05Z</time>
      </trkpt>
      <trkpt lat="43.91586" lon="5.11266">
        <ele>90.5</ele>
        <time>2018-03-12T12:50:27Z</time>
      </trkpt>
      <trkpt lat="43.91575" lon="5.11273">
        <ele>90.5</ele>
        <time>2018-03-12T12:50:41Z</time>
      </trkpt>
      <trkpt lat="43.91558" lon="5.11282">
        <ele>90.98</ele>
        <time>2018-03-12T12:51:02Z</time>
      </trkpt>
      <trkpt lat="43.91551" lon="5.11281">
        <ele>90.98</ele>
        <time>2018-03-12T12:51:19Z</time>
      </trkpt>
      <trkpt lat="43.91548" lon="5.11287">
        <ele>90.98</ele>
        <time>2018-03-12T12:51:37Z</time>
      </trkpt>
      <trkpt lat="43.91549" lon="5.11285">
        <ele>90.98</ele>
        <time>2018-03-12T12:52:00Z</time>
      </trkpt>
      <trkpt lat="43.91542" lon="5.11285">
        <ele>90.98</ele>
        <time>2018-03-12T12:52:18Z</time>
      </trkpt>
      <trkpt lat="43.91543" lon="5.11289">
        <ele>90.98</ele>
        <time>2018-03-12T12:52:38Z</time>
      </trkpt>
      <trkpt lat="43.91528" lon="5.11294">
        <ele>90.98</ele>
        <time>2018-03-12T12:53:00Z</time>
      </trkpt>
      <trkpt lat="43.91509" lon="5.11301">
        <ele>90.98</ele>
        <time>2018-03-12T12:53:19Z</time>
      </trkpt>
      <trkpt lat="43.91512" lon="5.11301">
        <ele>90.98</ele>
        <time>2018-03-12T12:53:35Z</time>
      </trkpt>
      <trkpt lat="43.91511" lon="5.11299">
        <ele>90.98</ele>
        <time>2018-03-12T12:54:08Z</time>
      </trkpt>
      <trkpt lat="43.91511" lon="5.11298">
        <ele>90.98</ele>
        <time>2018-03-12T12:54:42Z</time>
      </trkpt>
      <trkpt lat="43.91507" lon="5.11301">
        <ele>90.98</ele>
        <time>2018-03-12T12:55:00Z</time>
      </trkpt>
      <trkpt lat="43.91502" lon="5.11301">
        <ele>90.98</ele>
        <time>2018-03-12T12:55:14Z</time>
      </trkpt>
      <trkpt lat="43.91498" lon="5.11294">
        <ele>90.98</ele>
        <time>2018-03-12T12:55:32Z</time>
      </trkpt>
      <trkpt lat="43.91495" lon="5.11294">
        <ele>90.98</ele>
        <time>2018-03-12T12:55:59Z</time>
      </trkpt>
      <trkpt lat="43.91492" lon="5.11296">
        <ele>90.98</ele>
        <time>2018-03-12T12:56:25Z</time>
      </trkpt>
      <trkpt lat="43.91492" lon="5.11288">
        <ele>90.98</ele>
        <time>2018-03-12T12:56:43Z</time>
      </trkpt>
      <trkpt lat="43.91482" lon="5.1128">
        <ele>90.98</ele>
        <time>2018-03-12T12:57:02Z</time>
      </trkpt>
      <trkpt lat="43.91469" lon="5.11273">
        <ele>90.98</ele>
        <time>2018-03-12T12:57:20Z</time>
      </trkpt>
      <trkpt lat="43.91458" lon="5.11267">
        <ele>90.98</ele>
        <time>2018-03-12T12:57:35Z</time>
      </trkpt>
      <trkpt lat="43.91444" lon="5.11262">
        <ele>90.98</ele>
        <time>2018-03-12T12:57:51Z</time>
      </trkpt>
      <trkpt lat="43.9143" lon="5.11255">
        <ele>90.5</ele>
        <time>2018-03-12T12:58:06Z</time>
      </trkpt>
      <trkpt lat="43.9141" lon="5.11245">
        <ele>89.54</ele>
        <time>2018-03-12T12:58:24Z</time>
      </trkpt>
      <trkpt lat="43.91397" lon="5.1124">
        <ele>89.54</ele>
        <time>2018-03-12T12:58:39Z</time>
      </trkpt>
      <trkpt lat="43.91379" lon="5.11239">
        <ele>89.54</ele>
        <time>2018-03-12T12:58:56Z</time>
      </trkpt>
      <trkpt lat="43.91363" lon="5.11245">
        <ele>89.06</ele>
        <time>2018-03-12T12:59:11Z</time>
      </trkpt>
      <trkpt lat="43.91348" lon="5.11256">
        <ele>89.06</ele>
        <time>2018-03-12T12:59:27Z</time>
      </trkpt>
      <trkpt lat="43.9134" lon="5.1128">
        <ele>89.06</ele>
        <time>2018-03-12T12:59:47Z</time>
      </trkpt>
      <trkpt lat="43.91325" lon="5.11287">
        <ele>89.06</ele>
        <time>2018-03-12T13:00:04Z</time>
      </trkpt>
      <trkpt lat="43.91309" lon="5.11282">
        <ele>89.06</ele>
        <time>2018-03-12T13:00:21Z</time>
      </trkpt>
      <trkpt lat="43.91293" lon="5.11278">
        <ele>89.06</ele>
        <time>2018-03-12T13:00:37Z</time>
      </trkpt>
      <trkpt lat="43.91275" lon="5.11274">
        <ele>89.06</ele>
        <time>2018-03-12T13:00:54Z</time>
      </trkpt>
      <trkpt lat="43.9126" lon="5.11271">
        <ele>88.58</ele>
        <time>2018-03-12T13:01:08Z</time>
      </trkpt>
      <trkpt lat="43.91247" lon="5.11266">
        <ele>88.58</ele>
        <time>2018-03-12T13:01:22Z</time>
      </trkpt>
      <trkpt lat="43.91244" lon="5.11262">
        <ele>88.58</ele>
        <time>2018-03-12T13:01:26Z</time>
      </trkpt>
      <trkpt lat="43.91245" lon="5.11241">
        <ele>88.58</ele>
        <time>2018-03-12T13:01:43Z</time>
      </trkpt>
      <trkpt lat="43.91242" lon="5.1122">
        <ele>88.58</ele>
        <time>2018-03-12T13:01:58Z</time>
      </trkpt>
      <trkpt lat="43.91232" lon="5.11205">
        <ele>88.58</ele>
        <time>2018-03-12T13:02:13Z</time>
      </trkpt>
      <trkpt lat="43.9122" lon="5.11191">
        <ele>88.58</ele>
        <time>2018-03-12T13:02:29Z</time>
      </trkpt>
      <trkpt lat="43.91211" lon="5.11181">
        <ele>88.58</ele>
        <time>2018-03-12T13:02:41Z</time>
      </trkpt>
      <trkpt lat="43.91197" lon="5.11167">
        <ele>88.1</ele>
        <time>2018-03-12T13:02:57Z</time>
      </trkpt>
      <trkpt lat="43.91188" lon="5.11153">
        <ele>88.1</ele>
        <time>2018-03-12T13:03:09Z</time>
      </trkpt>
      <trkpt lat="43.91172" lon="5.11136">
        <ele>88.1</ele>
        <time>2018-03-12T13:03:27Z</time>
      </trkpt>
      <trkpt lat="43.91157" lon="5.1112">
        <ele>88.1</ele>
        <time>2018-03-12T13:03:44Z</time>
      </trkpt>
      <trkpt lat="43.91148" lon="5.11106">
        <ele>88.1</ele>
        <time>2018-03-12T13:03:58Z</time>
      </trkpt>
      <trkpt lat="43.91138" lon="5.1109">
        <ele>88.1</ele>
        <time>2018-03-12T13:04:12Z</time>
      </trkpt>
      <trkpt lat="43.91125" lon="5.11073">
        <ele>88.1</ele>
        <time>2018-03-12T13:04:29Z</time>
      </trkpt>
      <trkpt lat="43.91115" lon="5.11057">
        <ele>88.1</ele>
        <time>2018-03-12T13:04:46Z</time>
      </trkpt>
      <trkpt lat="43.91105" lon="5.11041">
        <ele>88.1</ele>
        <time>2018-03-12T13:05:02Z</time>
      </trkpt>
      <trkpt lat="43.9109" lon="5.11023">
        <ele>88.1</ele>
        <time>2018-03-12T13:05:20Z</time>
      </trkpt>
      <trkpt lat="43.91081" lon="5.11007">
        <ele>88.1</ele>
        <time>2018-03-12T13:05:35Z</time>
      </trkpt>
      <trkpt lat="43.91067" lon="5.10986">
        <ele>88.1</ele>
        <time>2018-03-12T13:05:54Z</time>
      </trkpt>
      <trkpt lat="43.91062" lon="5.10986">
        <ele>88.1</ele>
        <time>2018-03-12T13:06:08Z</time>
      </trkpt>
      <trkpt lat="43.91052" lon="5.10983">
        <ele>88.1</ele>
        <time>2018-03-12T13:06:22Z</time>
      </trkpt>
      <trkpt lat="43.91044" lon="5.10988">
        <ele>88.1</ele>
        <time>2018-03-12T13:06:31Z</time>
      </trkpt>
      <trkpt lat="43.91027" lon="5.10997">
        <ele>88.1</ele>
        <time>2018-03-12T13:06:50Z</time>
      </trkpt>
      <trkpt lat="43.91012" lon="5.11005">
        <ele>87.62</ele>
        <time>2018-03-12T13:07:07Z</time>
      </trkpt>
      <trkpt lat="43.90994" lon="5.1101">
        <ele>87.62</ele>
        <time>2018-03-12T13:07:25Z</time>
      </trkpt>
      <trkpt lat="43.90985" lon="5.1101">
        <ele>87.62</ele>
        <time>2018-03-12T13:07:42Z</time>
      </trkpt>
      <trkpt lat="43.90978" lon="5.11009">
        <ele>87.62</ele>
        <time>2018-03-12T13:08:02Z</time>
      </trkpt>
      <trkpt lat="43.90978" lon="5.11007">
        <ele>89.54</ele>
        <time>2018-03-12T13:08:09Z</time>
      </trkpt>
      <trkpt lat="43.9098" lon="5.11005">
        <ele>88.1</ele>
        <time>2018-03-12T13:08:39Z</time>
      </trkpt>
      <trkpt lat="43.90979" lon="5.11007">
        <ele>84.73</ele>
        <time>2018-03-12T13:08:59Z</time>
      </trkpt>
      <trkpt lat="43.90979" lon="5.11008">
        <ele>93.39</ele>
        <time>2018-03-12T13:09:00Z</time>
      </trkpt>
      <trkpt lat="43.90979" lon="5.11008">
        <ele>89.06</ele>
        <time>2018-03-12T13:09:01Z</time>
      </trkpt>
      <trkpt lat="43.90968" lon="5.11009">
        <ele>89.06</ele>
        <time>2018-03-12T13:09:15Z</time>
      </trkpt>
      <trkpt lat="43.90966" lon="5.11016">
        <ele>90.02</ele>
        <time>2018-03-12T13:09:28Z</time>
      </trkpt>
      <trkpt lat="43.90967" lon="5.11016">
        <ele>90.02</ele>
        <time>2018-03-12T13:09:44Z</time>
      </trkpt>
      <trkpt lat="43.90968" lon="5.11016">
        <ele>90.02</ele>
        <time>2018-03-12T13:10:08Z</time>
      </trkpt>
      <trkpt lat="43.90967" lon="5.11014">
        <ele>90.5</ele>
        <time>2018-03-12T13:10:29Z</time>
      </trkpt>
      <trkpt lat="43.90967" lon="5.11016">
        <ele>90.5</ele>
        <time>2018-03-12T13:10:47Z</time>
      </trkpt>
      <trkpt lat="43.90968" lon="5.11017">
        <ele>90.5</ele>
        <time>2018-03-12T13:11:10Z</time>
      </trkpt>
      <trkpt lat="43.90968" lon="5.11017">
        <ele>90.5</ele>
        <time>2018-03-12T13:11:30Z</time>
      </trkpt>
      <trkpt lat="43.90966" lon="5.11018">
        <ele>90.5</ele>
        <time>2018-03-12T13:11:32Z</time>
      </trkpt>
      <trkpt lat="43.90967" lon="5.11018">
        <ele>96.27</ele>
        <time>2018-03-12T13:11:33Z</time>
      </trkpt>
      <trkpt lat="43.90967" lon="5.11018">
        <ele>90.5</ele>
        <time>2018-03-12T13:11:34Z</time>
      </trkpt>
      <trkpt lat="43.90964" lon="5.11024">
        <ele>90.5</ele>
        <time>2018-03-12T13:11:48Z</time>
      </trkpt>
      <trkpt lat="43.90951" lon="5.11023">
        <ele>90.5</ele>
        <time>2018-03-12T13:12:05Z</time>
      </trkpt>
      <trkpt lat="43.90948" lon="5.11023">
        <ele>91.94</ele>
        <time>2018-03-12T13:12:09Z</time>
      </trkpt>
      <trkpt lat="43.90938" lon="5.11028">
        <ele>92.9</ele>
        <time>2018-03-12T13:12:24Z</time>
      </trkpt>
      <trkpt lat="43.90929" lon="5.11039">
        <ele>94.35</ele>
        <time>2018-03-12T13:12:42Z</time>
      </trkpt>
      <trkpt lat="43.90929" lon="5.11053">
        <ele>96.27</ele>
        <time>2018-03-12T13:12:57Z</time>
      </trkpt>
      <trkpt lat="43.90932" lon="5.11066">
        <ele>97.23</ele>
        <time>2018-03-12T13:13:13Z</time>
      </trkpt>
      <trkpt lat="43.90938" lon="5.1108">
        <ele>98.67</ele>
        <time>2018-03-12T13:13:28Z</time>
      </trkpt>
      <trkpt lat="43.90943" lon="5.11095">
        <ele>101.08</ele>
        <time>2018-03-12T13:13:45Z</time>
      </trkpt>
      <trkpt lat="43.90949" lon="5.11107">
        <ele>102.52</ele>
        <time>2018-03-12T13:14:00Z</time>
      </trkpt>
      <trkpt lat="43.90955" lon="5.11116">
        <ele>103.96</ele>
        <time>2018-03-12T13:14:16Z</time>
      </trkpt>
      <trkpt lat="43.90957" lon="5.11132">
        <ele>105.88</ele>
        <time>2018-03-12T13:14:31Z</time>
      </trkpt>
      <trkpt lat="43.9096" lon="5.11146">
        <ele>107.81</ele>
        <time>2018-03-12T13:14:45Z</time>
      </trkpt>
      <trkpt lat="43.90966" lon="5.11161">
        <ele>109.73</ele>
        <time>2018-03-12T13:15:00Z</time>
      </trkpt>
      <trkpt lat="43.90972" lon="5.11172">
        <ele>111.17</ele>
        <time>2018-03-12T13:15:14Z</time>
      </trkpt>
      <trkpt lat="43.90978" lon="5.11181">
        <ele>113.09</ele>
        <time>2018-03-12T13:15:29Z</time>
      </trkpt>
      <trkpt lat="43.90982" lon="5.11192">
        <ele>114.53</ele>
        <time>2018-03-12T13:15:41Z</time>
      </trkpt>
      <trkpt lat="43.90991" lon="5.11201">
        <ele>115.5</ele>
        <time>2018-03-12T13:15:55Z</time>
      </trkpt>
      <trkpt lat="43.90999" lon="5.11212">
        <ele>116.46</ele>
        <time>2018-03-12T13:16:09Z</time>
      </trkpt>
      <trkpt lat="43.91008" lon="5.11224">
        <ele>118.86</ele>
        <time>2018-03-12T13:16:24Z</time>
      </trkpt>
      <trkpt lat="43.91019" lon="5.11241">
        <ele>120.78</ele>
        <time>2018-03-12T13:16:43Z</time>
      </trkpt>
      <trkpt lat="43.91026" lon="5.1126">
        <ele>122.71</ele>
        <time>2018-03-12T13:16:59Z</time>
      </trkpt>
      <trkpt lat="43.91034" lon="5.11275">
        <ele>123.67</ele>
        <time>2018-03-12T13:17:14Z</time>
      </trkpt>
      <trkpt lat="43.91039" lon="5.11293">
        <ele>125.11</ele>
        <time>2018-03-12T13:17:28Z</time>
      </trkpt>
      <trkpt lat="43.9104" lon="5.11294">
        <ele>125.11</ele>
        <time>2018-03-12T13:17:29Z</time>
      </trkpt>
      <trkpt lat="43.91044" lon="5.1131">
        <ele>126.07</ele>
        <time>2018-03-12T13:17:41Z</time>
      </trkpt>
      <trkpt lat="43.91048" lon="5.11328">
        <ele>127.99</ele>
        <time>2018-03-12T13:17:56Z</time>
      </trkpt>
      <trkpt lat="43.91051" lon="5.11338">
        <ele>128.95</ele>
        <time>2018-03-12T13:18:09Z</time>
      </trkpt>
      <trkpt lat="43.91049" lon="5.11341">
        <ele>128.95</ele>
        <time>2018-03-12T13:18:31Z</time>
      </trkpt>
      <trkpt lat="43.9105" lon="5.11343">
        <ele>128.95</ele>
        <time>2018-03-12T13:18:56Z</time>
      </trkpt>
      <trkpt lat="43.91049" lon="5.11336">
        <ele>129.43</ele>
        <time>2018-03-12T13:19:12Z</time>
      </trkpt>
      <trkpt lat="43.91049" lon="5.11336">
        <ele>129.43</ele>
        <time>2018-03-12T13:19:18Z</time>
      </trkpt>
      <trkpt lat="43.91049" lon="5.11338">
        <ele>130.88</ele>
        <time>2018-03-12T13:19:20Z</time>
      </trkpt>
      <trkpt lat="43.91049" lon="5.11348">
        <ele>128.95</ele>
        <time>2018-03-12T13:19:31Z</time>
      </trkpt>
      <trkpt lat="43.91044" lon="5.11358">
        <ele>130.4</ele>
        <time>2018-03-12T13:19:40Z</time>
      </trkpt>
      <trkpt lat="43.91042" lon="5.11368">
        <ele>131.36</ele>
        <time>2018-03-12T13:19:51Z</time>
      </trkpt>
      <trkpt lat="43.91034" lon="5.1139">
        <ele>132.32</ele>
        <time>2018-03-12T13:20:09Z</time>
      </trkpt>
      <trkpt lat="43.91025" lon="5.11405">
        <ele>133.76</ele>
        <time>2018-03-12T13:20:24Z</time>
      </trkpt>
      <trkpt lat="43.91016" lon="5.11415">
        <ele>134.24</ele>
        <time>2018-03-12T13:20:36Z</time>
      </trkpt>
      <trkpt lat="43.91009" lon="5.11438">
        <ele>136.16</ele>
        <time>2018-03-12T13:20:54Z</time>
      </trkpt>
      <trkpt lat="43.91001" lon="5.11458">
        <ele>137.13</ele>
        <time>2018-03-12T13:21:11Z</time>
      </trkpt>
      <trkpt lat="43.90992" lon="5.11477">
        <ele>139.05</ele>
        <time>2018-03-12T13:21:28Z</time>
      </trkpt>
      <trkpt lat="43.90985" lon="5.11496">
        <ele>139.53</ele>
        <time>2018-03-12T13:21:44Z</time>
      </trkpt>
      <trkpt lat="43.90981" lon="5.1151">
        <ele>141.45</ele>
        <time>2018-03-12T13:21:59Z</time>
      </trkpt>
      <trkpt lat="43.90978" lon="5.11531">
        <ele>143.85</ele>
        <time>2018-03-12T13:22:16Z</time>
      </trkpt>
      <trkpt lat="43.90979" lon="5.11549">
        <ele>146.26</ele>
        <time>2018-03-12T13:22:32Z</time>
      </trkpt>
      <trkpt lat="43.90974" lon="5.11568">
        <ele>147.7</ele>
        <time>2018-03-12T13:22:49Z</time>
      </trkpt>
      <trkpt lat="43.9097" lon="5.11571">
        <ele>148.66</ele>
        <time>2018-03-12T13:23:06Z</time>
      </trkpt>
      <trkpt lat="43.90969" lon="5.11573">
        <ele>148.66</ele>
        <time>2018-03-12T13:23:24Z</time>
      </trkpt>
      <trkpt lat="43.90968" lon="5.11575">
        <ele>149.14</ele>
        <time>2018-03-12T13:23:50Z</time>
      </trkpt>
      <trkpt lat="43.90966" lon="5.11576">
        <ele>149.14</ele>
        <time>2018-03-12T13:24:15Z</time>
      </trkpt>
      <trkpt lat="43.90961" lon="5.11578">
        <ele>149.14</ele>
        <time>2018-03-12T13:24:21Z</time>
      </trkpt>
      <trkpt lat="43.90943" lon="5.11583">
        <ele>149.14</ele>
        <time>2018-03-12T13:24:39Z</time>
      </trkpt>
      <trkpt lat="43.90931" lon="5.11588">
        <ele>150.1</ele>
        <time>2018-03-12T13:24:56Z</time>
      </trkpt>
      <trkpt lat="43.90933" lon="5.11588">
        <ele>150.58</ele>
        <time>2018-03-12T13:25:20Z</time>
      </trkpt>
      <trkpt lat="43.90929" lon="5.11588">
        <ele>150.58</ele>
        <time>2018-03-12T13:25:35Z</time>
      </trkpt>
      <trkpt lat="43.90912" lon="5.11594">
        <ele>151.06</ele>
        <time>2018-03-12T13:25:54Z</time>
      </trkpt>
      <trkpt lat="43.909" lon="5.11609">
        <ele>152.51</ele>
        <time>2018-03-12T13:26:14Z</time>
      </trkpt>
      <trkpt lat="43.90901" lon="5.1163">
        <ele>152.99</ele>
        <time>2018-03-12T13:26:31Z</time>
      </trkpt>
      <trkpt lat="43.90905" lon="5.11646">
        <ele>154.43</ele>
        <time>2018-03-12T13:26:46Z</time>
      </trkpt>
      <trkpt lat="43.909" lon="5.11665">
        <ele>156.83</ele>
        <time>2018-03-12T13:27:05Z</time>
      </trkpt>
      <trkpt lat="43.90893" lon="5.1168">
        <ele>158.27</ele>
        <time>2018-03-12T13:27:22Z</time>
      </trkpt>
      <trkpt lat="43.90889" lon="5.11698">
        <ele>160.68</ele>
        <time>2018-03-12T13:27:40Z</time>
      </trkpt>
      <trkpt lat="43.90889" lon="5.11713">
        <ele>162.6</ele>
        <time>2018-03-12T13:27:55Z</time>
      </trkpt>
      <trkpt lat="43.90888" lon="5.11719">
        <ele>163.08</ele>
        <time>2018-03-12T13:28:10Z</time>
      </trkpt>
      <trkpt lat="43.9089" lon="5.11734">
        <ele>164.52</ele>
        <time>2018-03-12T13:28:25Z</time>
      </trkpt>
      <trkpt lat="43.9089" lon="5.11751">
        <ele>166.93</ele>
        <time>2018-03-12T13:28:41Z</time>
      </trkpt>
      <trkpt lat="43.9089" lon="5.11765">
        <ele>168.37</ele>
        <time>2018-03-12T13:28:55Z</time>
      </trkpt>
      <trkpt lat="43.90891" lon="5.11779">
        <ele>169.81</ele>
        <time>2018-03-12T13:29:09Z</time>
      </trkpt>
      <trkpt lat="43.90891" lon="5.11795">
        <ele>172.21</ele>
        <time>2018-03-12T13:29:25Z</time>
      </trkpt>
      <trkpt lat="43.90891" lon="5.11809">
        <ele>173.66</ele>
        <time>2018-03-12T13:29:38Z</time>
      </trkpt>
      <trkpt lat="43.9089" lon="5.11825">
        <ele>175.58</ele>
        <time>2018-03-12T13:29:56Z</time>
      </trkpt>
      <trkpt lat="43.90889" lon="5.11837">
        <ele>177.98</ele>
        <time>2018-03-12T13:30:12Z</time>
      </trkpt>
      <trkpt lat="43.90887" lon="5.11856">
        <ele>179.42</ele>
        <time>2018-03-12T13:30:28Z</time>
      </trkpt>
      <trkpt lat="43.90887" lon="5.11874">
        <ele>180.87</ele>
        <time>2018-03-12T13:30:44Z</time>
      </trkpt>
      <trkpt lat="43.90887" lon="5.11891">
        <ele>181.83</ele>
        <time>2018-03-12T13:30:58Z</time>
      </trkpt>
      <trkpt lat="43.90887" lon="5.11911">
        <ele>183.27</ele>
        <time>2018-03-12T13:31:14Z</time>
      </trkpt>
      <trkpt lat="43.90886" lon="5.11933">
        <ele>184.23</ele>
        <time>2018-03-12T13:31:31Z</time>
      </trkpt>
      <trkpt lat="43.90886" lon="5.11935">
        <ele>184.23</ele>
        <time>2018-03-12T13:31:51Z</time>
      </trkpt>
      <trkpt lat="43.90888" lon="5.1194">
        <ele>184.71</ele>
        <time>2018-03-12T13:32:06Z</time>
      </trkpt>
      <trkpt lat="43.90887" lon="5.11939">
        <ele>183.27</ele>
        <time>2018-03-12T13:32:23Z</time>
      </trkpt>
      <trkpt lat="43.90887" lon="5.1194">
        <ele>186.15</ele>
        <time>2018-03-12T13:32:24Z</time>
      </trkpt>
      <trkpt lat="43.90888" lon="5.11942">
        <ele>185.19</ele>
        <time>2018-03-12T13:32:45Z</time>
      </trkpt>
      <trkpt lat="43.90889" lon="5.11942">
        <ele>185.19</ele>
        <time>2018-03-12T13:32:58Z</time>
      </trkpt>
      <trkpt lat="43.9089" lon="5.11948">
        <ele>184.71</ele>
        <time>2018-03-12T13:33:17Z</time>
      </trkpt>
      <trkpt lat="43.90894" lon="5.11968">
        <ele>184.71</ele>
        <time>2018-03-12T13:33:35Z</time>
      </trkpt>
      <trkpt lat="43.90896" lon="5.11974">
        <ele>184.71</ele>
        <time>2018-03-12T13:33:40Z</time>
      </trkpt>
      <trkpt lat="43.90905" lon="5.11998">
        <ele>184.71</ele>
        <time>2018-03-12T13:33:59Z</time>
      </trkpt>
      <trkpt lat="43.90918" lon="5.12019">
        <ele>185.67</ele>
        <time>2018-03-12T13:34:18Z</time>
      </trkpt>
      <trkpt lat="43.90931" lon="5.12035">
        <ele>186.63</ele>
        <time>2018-03-12T13:34:37Z</time>
      </trkpt>
      <trkpt lat="43.90946" lon="5.1205">
        <ele>186.63</ele>
        <time>2018-03-12T13:34:58Z</time>
      </trkpt>
      <trkpt lat="43.90959" lon="5.1206">
        <ele>186.63</ele>
        <time>2018-03-12T13:35:13Z</time>
      </trkpt>
      <trkpt lat="43.90974" lon="5.12073">
        <ele>187.11</ele>
        <time>2018-03-12T13:35:29Z</time>
      </trkpt>
      <trkpt lat="43.90988" lon="5.12082">
        <ele>187.59</ele>
        <time>2018-03-12T13:35:45Z</time>
      </trkpt>
      <trkpt lat="43.90992" lon="5.12085">
        <ele>188.56</ele>
        <time>2018-03-12T13:36:02Z</time>
      </trkpt>
      <trkpt lat="43.91008" lon="5.12092">
        <ele>188.56</ele>
        <time>2018-03-12T13:36:20Z</time>
      </trkpt>
      <trkpt lat="43.91029" lon="5.121">
        <ele>188.56</ele>
        <time>2018-03-12T13:36:41Z</time>
      </trkpt>
      <trkpt lat="43.91047" lon="5.12109">
        <ele>188.56</ele>
        <time>2018-03-12T13:37:01Z</time>
      </trkpt>
      <trkpt lat="43.9107" lon="5.12115">
        <ele>188.56</ele>
        <time>2018-03-12T13:37:23Z</time>
      </trkpt>
      <trkpt lat="43.91087" lon="5.12127">
        <ele>188.56</ele>
        <time>2018-03-12T13:37:43Z</time>
      </trkpt>
      <trkpt lat="43.91092" lon="5.12141">
        <ele>187.59</ele>
        <time>2018-03-12T13:37:59Z</time>
      </trkpt>
      <trkpt lat="43.91093" lon="5.12144">
        <ele>188.08</ele>
        <time>2018-03-12T13:38:17Z</time>
      </trkpt>
      <trkpt lat="43.91097" lon="5.12149">
        <ele>187.59</ele>
        <time>2018-03-12T13:38:39Z</time>
      </trkpt>
      <trkpt lat="43.91114" lon="5.12145">
        <ele>187.11</ele>
        <time>2018-03-12T13:38:59Z</time>
      </trkpt>
      <trkpt lat="43.91134" lon="5.1215">
        <ele>186.63</ele>
        <time>2018-03-12T13:39:19Z</time>
      </trkpt>
      <trkpt lat="43.91149" lon="5.12158">
        <ele>185.67</ele>
        <time>2018-03-12T13:39:35Z</time>
      </trkpt>
      <trkpt lat="43.9117" lon="5.1216">
        <ele>184.71</ele>
        <time>2018-03-12T13:39:52Z</time>
      </trkpt>
      <trkpt lat="43.91188" lon="5.12164">
        <ele>184.23</ele>
        <time>2018-03-12T13:40:09Z</time>
      </trkpt>
      <trkpt lat="43.91208" lon="5.12168">
        <ele>183.75</ele>
        <time>2018-03-12T13:40:28Z</time>
      </trkpt>
      <trkpt lat="43.9122" lon="5.12173">
        <ele>183.75</ele>
        <time>2018-03-12T13:40:42Z</time>
      </trkpt>
      <trkpt lat="43.91234" lon="5.12178">
        <ele>183.75</ele>
        <time>2018-03-12T13:40:56Z</time>
      </trkpt>
      <trkpt lat="43.91252" lon="5.1219">
        <ele>185.19</ele>
        <time>2018-03-12T13:41:13Z</time>
      </trkpt>
      <trkpt lat="43.91264" lon="5.12198">
        <ele>186.15</ele>
        <time>2018-03-12T13:41:28Z</time>
      </trkpt>
      <trkpt lat="43.91273" lon="5.12199">
        <ele>186.63</ele>
        <time>2018-03-12T13:41:45Z</time>
      </trkpt>
      <trkpt lat="43.91287" lon="5.12202">
        <ele>186.63</ele>
        <time>2018-03-12T13:42:00Z</time>
      </trkpt>
      <trkpt lat="43.91302" lon="5.12207">
        <ele>186.63</ele>
        <time>2018-03-12T13:42:18Z</time>
      </trkpt>
      <trkpt lat="43.91319" lon="5.12212">
        <ele>186.63</ele>
        <time>2018-03-12T13:42:33Z</time>
      </trkpt>
      <trkpt lat="43.91338" lon="5.12214">
        <ele>184.71</ele>
        <time>2018-03-12T13:42:51Z</time>
      </trkpt>
      <trkpt lat="43.91355" lon="5.12219">
        <ele>184.23</ele>
        <time>2018-03-12T13:43:11Z</time>
      </trkpt>
      <trkpt lat="43.91371" lon="5.12223">
        <ele>184.23</ele>
        <time>2018-03-12T13:43:27Z</time>
      </trkpt>
      <trkpt lat="43.91389" lon="5.12226">
        <ele>184.23</ele>
        <time>2018-03-12T13:43:44Z</time>
      </trkpt>
      <trkpt lat="43.91405" lon="5.1223">
        <ele>184.23</ele>
        <time>2018-03-12T13:44:00Z</time>
      </trkpt>
      <trkpt lat="43.91422" lon="5.12231">
        <ele>184.23</ele>
        <time>2018-03-12T13:44:19Z</time>
      </trkpt>
      <trkpt lat="43.91434" lon="5.12226">
        <ele>182.79</ele>
        <time>2018-03-12T13:44:34Z</time>
      </trkpt>
      <trkpt lat="43.91449" lon="5.12224">
        <ele>181.35</ele>
        <time>2018-03-12T13:44:52Z</time>
      </trkpt>
      <trkpt lat="43.91456" lon="5.12222">
        <ele>180.38</ele>
        <time>2018-03-12T13:45:09Z</time>
      </trkpt>
      <trkpt lat="43.91458" lon="5.12222">
        <ele>180.87</ele>
        <time>2018-03-12T13:45:20Z</time>
      </trkpt>
      <trkpt lat="43.91469" lon="5.1222">
        <ele>180.38</ele>
        <time>2018-03-12T13:45:39Z</time>
      </trkpt>
      <trkpt lat="43.91482" lon="5.12217">
        <ele>178.46</ele>
        <time>2018-03-12T13:45:55Z</time>
      </trkpt>
      <trkpt lat="43.91499" lon="5.12219">
        <ele>176.54</ele>
        <time>2018-03-12T13:46:13Z</time>
      </trkpt>
      <trkpt lat="43.91515" lon="5.12225">
        <ele>174.14</ele>
        <time>2018-03-12T13:46:30Z</time>
      </trkpt>
      <trkpt lat="43.91526" lon="5.12226">
        <ele>171.73</ele>
        <time>2018-03-12T13:46:46Z</time>
      </trkpt>
      <trkpt lat="43.91537" lon="5.12231">
        <ele>169.81</ele>
        <time>2018-03-12T13:47:01Z</time>
      </trkpt>
      <trkpt lat="43.91549" lon="5.12236">
        <ele>167.89</ele>
        <time>2018-03-12T13:47:19Z</time>
      </trkpt>
      <trkpt lat="43.9156" lon="5.12245">
        <ele>165.48</ele>
        <time>2018-03-12T13:47:35Z</time>
      </trkpt>
      <trkpt lat="43.91572" lon="5.12253">
        <ele>163.56</ele>
        <time>2018-03-12T13:47:54Z</time>
      </trkpt>
      <trkpt lat="43.9158" lon="5.12252">
        <ele>161.64</ele>
        <time>2018-03-12T13:48:09Z</time>
      </trkpt>
      <trkpt lat="43.91589" lon="5.12254">
        <ele>160.2</ele>
        <time>2018-03-12T13:48:28Z</time>
      </trkpt>
      <trkpt lat="43.916" lon="5.12259">
        <ele>157.31</ele>
        <time>2018-03-12T13:48:47Z</time>
      </trkpt>
      <trkpt lat="43.91611" lon="5.12261">
        <ele>154.91</ele>
        <time>2018-03-12T13:49:05Z</time>
      </trkpt>
      <trkpt lat="43.91618" lon="5.12259">
        <ele>153.47</ele>
        <time>2018-03-12T13:49:18Z</time>
      </trkpt>
      <trkpt lat="43.91626" lon="5.12259">
        <ele>152.03</ele>
        <time>2018-03-12T13:49:33Z</time>
      </trkpt>
      <trkpt lat="43.91634" lon="5.1226">
        <ele>150.1</ele>
        <time>2018-03-12T13:49:49Z</time>
      </trkpt>
      <trkpt lat="43.91641" lon="5.12258">
        <ele>149.14</ele>
        <time>2018-03-12T13:50:05Z</time>
      </trkpt>
      <trkpt lat="43.91648" lon="5.12259">
        <ele>147.7</ele>
        <time>2018-03-12T13:50:23Z</time>
      </trkpt>
      <trkpt lat="43.91657" lon="5.1226">
        <ele>146.26</ele>
        <time>2018-03-12T13:50:38Z</time>
      </trkpt>
      <trkpt lat="43.91666" lon="5.12257">
        <ele>143.85</ele>
        <time>2018-03-12T13:50:54Z</time>
      </trkpt>
      <trkpt lat="43.91676" lon="5.12254">
        <ele>142.41</ele>
        <time>2018-03-12T13:51:11Z</time>
      </trkpt>
      <trkpt lat="43.91688" lon="5.12256">
        <ele>140.01</ele>
        <time>2018-03-12T13:51:29Z</time>
      </trkpt>
      <trkpt lat="43.91698" lon="5.12252">
        <ele>138.09</ele>
        <time>2018-03-12T13:51:47Z</time>
      </trkpt>
      <trkpt lat="43.91711" lon="5.12253">
        <ele>135.68</ele>
        <time>2018-03-12T13:52:04Z</time>
      </trkpt>
      <trkpt lat="43.91723" lon="5.12258">
        <ele>134.24</ele>
        <time>2018-03-12T13:52:25Z</time>
      </trkpt>
      <trkpt lat="43.91737" lon="5.12268">
        <ele>132.32</ele>
        <time>2018-03-12T13:52:44Z</time>
      </trkpt>
      <trkpt lat="43.91745" lon="5.12279">
        <ele>129.92</ele>
        <time>2018-03-12T13:53:03Z</time>
      </trkpt>
      <trkpt lat="43.91751" lon="5.12284">
        <ele>127.51</ele>
        <time>2018-03-12T13:53:20Z</time>
      </trkpt>
      <trkpt lat="43.91759" lon="5.12291">
        <ele>125.59</ele>
        <time>2018-03-12T13:53:37Z</time>
      </trkpt>
      <trkpt lat="43.9177" lon="5.12301">
        <ele>122.71</ele>
        <time>2018-03-12T13:53:56Z</time>
      </trkpt>
      <trkpt lat="43.9178" lon="5.12317">
        <ele>119.34</ele>
        <time>2018-03-12T13:54:16Z</time>
      </trkpt>
      <trkpt lat="43.91788" lon="5.12328">
        <ele>116.94</ele>
        <time>2018-03-12T13:54:32Z</time>
      </trkpt>
      <trkpt lat="43.91794" lon="5.12339">
        <ele>115.01</ele>
        <time>2018-03-12T13:54:47Z</time>
      </trkpt>
      <trkpt lat="43.91802" lon="5.1235">
        <ele>112.61</ele>
        <time>2018-03-12T13:55:03Z</time>
      </trkpt>
      <trkpt lat="43.91807" lon="5.12359">
        <ele>110.69</ele>
        <time>2018-03-12T13:55:16Z</time>
      </trkpt>
      <trkpt lat="43.91814" lon="5.12367">
        <ele>108.29</ele>
        <time>2018-03-12T13:55:35Z</time>
      </trkpt>
      <trkpt lat="43.91816" lon="5.12374">
        <ele>106.84</ele>
        <time>2018-03-12T13:55:50Z</time>
      </trkpt>
      <trkpt lat="43.91816" lon="5.12374">
        <ele>106.36</ele>
        <time>2018-03-12T13:56:05Z</time>
      </trkpt>
      <trkpt lat="43.91815" lon="5.12379">
        <ele>105.4</ele>
        <time>2018-03-12T13:56:22Z</time>
      </trkpt>
      <trkpt lat="43.91814" lon="5.12391">
        <ele>103.48</ele>
        <time>2018-03-12T13:56:39Z</time>
      </trkpt>
      <trkpt lat="43.9181" lon="5.12401">
        <ele>102.52</ele>
        <time>2018-03-12T13:56:55Z</time>
      </trkpt>
      <trkpt lat="43.91815" lon="5.12407">
        <ele>101.08</ele>
        <time>2018-03-12T13:57:09Z</time>
      </trkpt>
      <trkpt lat="43.91817" lon="5.12415">
        <ele>99.15</ele>
        <time>2018-03-12T13:57:22Z</time>
      </trkpt>
      <trkpt lat="43.91823" lon="5.12418">
        <ele>98.67</ele>
        <time>2018-03-12T13:57:36Z</time>
      </trkpt>
      <trkpt lat="43.91828" lon="5.1242">
        <ele>97.71</ele>
        <time>2018-03-12T13:57:50Z</time>
      </trkpt>
      <trkpt lat="43.91834" lon="5.12423">
        <ele>95.79</ele>
        <time>2018-03-12T13:58:05Z</time>
      </trkpt>
      <trkpt lat="43.91841" lon="5.12429">
        <ele>93.87</ele>
        <time>2018-03-12T13:58:21Z</time>
      </trkpt>
      <trkpt lat="43.91849" lon="5.12433">
        <ele>91.94</ele>
        <time>2018-03-12T13:58:37Z</time>
      </trkpt>
      <trkpt lat="43.91856" lon="5.12439">
        <ele>90.5</ele>
        <time>2018-03-12T13:58:53Z</time>
      </trkpt>
      <trkpt lat="43.91865" lon="5.12445">
        <ele>88.58</ele>
        <time>2018-03-12T13:59:10Z</time>
      </trkpt>
      <trkpt lat="43.91869" lon="5.12446">
        <ele>87.14</ele>
        <time>2018-03-12T13:59:23Z</time>
      </trkpt>
      <trkpt lat="43.91874" lon="5.1245">
        <ele>86.18</ele>
        <time>2018-03-12T13:59:37Z</time>
      </trkpt>
      <trkpt lat="43.9188" lon="5.12458">
        <ele>84.73</ele>
        <time>2018-03-12T13:59:51Z</time>
      </trkpt>
      <trkpt lat="43.91886" lon="5.12467">
        <ele>82.81</ele>
        <time>2018-03-12T14:00:06Z</time>
      </trkpt>
      <trkpt lat="43.91894" lon="5.12475">
        <ele>81.37</ele>
        <time>2018-03-12T14:00:22Z</time>
      </trkpt>
      <trkpt lat="43.91899" lon="5.12479">
        <ele>80.41</ele>
        <time>2018-03-12T14:00:38Z</time>
      </trkpt>
      <trkpt lat="43.91902" lon="5.12486">
        <ele>79.45</ele>
        <time>2018-03-12T14:00:54Z</time>
      </trkpt>
      <trkpt lat="43.91903" lon="5.12496">
        <ele>77.52</ele>
        <time>2018-03-12T14:01:10Z</time>
      </trkpt>
      <trkpt lat="43.9191" lon="5.12513">
        <ele>75.6</ele>
        <time>2018-03-12T14:01:28Z</time>
      </trkpt>
      <trkpt lat="43.91917" lon="5.12522">
        <ele>74.64</ele>
        <time>2018-03-12T14:01:41Z</time>
      </trkpt>
      <trkpt lat="43.91927" lon="5.1254">
        <ele>73.68</ele>
        <time>2018-03-12T14:02:00Z</time>
      </trkpt>
      <trkpt lat="43.91941" lon="5.12546">
        <ele>72.24</ele>
        <time>2018-03-12T14:02:17Z</time>
      </trkpt>
      <trkpt lat="43.91956" lon="5.12552">
        <ele>71.76</ele>
        <time>2018-03-12T14:02:39Z</time>
      </trkpt>
      <trkpt lat="43.91963" lon="5.12557">
        <ele>71.27</ele>
        <time>2018-03-12T14:02:54Z</time>
      </trkpt>
      <trkpt lat="43.91961" lon="5.12574">
        <ele>71.27</ele>
        <time>2018-03-12T14:03:12Z</time>
      </trkpt>
      <trkpt lat="43.91953" lon="5.12593">
        <ele>71.27</ele>
        <time>2018-03-12T14:03:31Z</time>
      </trkpt>
      <trkpt lat="43.91943" lon="5.12615">
        <ele>71.27</ele>
        <time>2018-03-12T14:03:48Z</time>
      </trkpt>
      <trkpt lat="43.91946" lon="5.12633">
        <ele>70.79</ele>
        <time>2018-03-12T14:04:04Z</time>
      </trkpt>
      <trkpt lat="43.91953" lon="5.12647">
        <ele>70.79</ele>
        <time>2018-03-12T14:04:20Z</time>
      </trkpt>
      <trkpt lat="43.91956" lon="5.12648">
        <ele>69.83</ele>
        <time>2018-03-12T14:04:28Z</time>
      </trkpt>
      <trkpt lat="43.91959" lon="5.12652">
        <ele>70.31</ele>
        <time>2018-03-12T14:04:48Z</time>
      </trkpt>
      <trkpt lat="43.91964" lon="5.12675">
        <ele>69.83</ele>
        <time>2018-03-12T14:05:06Z</time>
      </trkpt>
      <trkpt lat="43.91971" lon="5.12691">
        <ele>69.83</ele>
        <time>2018-03-12T14:05:21Z</time>
      </trkpt>
      <trkpt lat="43.91971" lon="5.12692">
        <ele>69.83</ele>
        <time>2018-03-12T14:05:22Z</time>
      </trkpt>
      <trkpt lat="43.91981" lon="5.12707">
        <ele>69.83</ele>
        <time>2018-03-12T14:05:41Z</time>
      </trkpt>
      <trkpt lat="43.91983" lon="5.12709">
        <ele>68.87</ele>
        <time>2018-03-12T14:06:00Z</time>
      </trkpt>
      <trkpt lat="43.91982" lon="5.12709">
        <ele>68.87</ele>
        <time>2018-03-12T14:06:40Z</time>
      </trkpt>
      <trkpt lat="43.91983" lon="5.12711">
        <ele>68.87</ele>
        <time>2018-03-12T14:06:53Z</time>
      </trkpt>
    </trkseg>
  </trk>
</gpx>